Observation data for Boys Ranch on 06/14/2019      Previous  Date  Next       Current Mesonet Observations  Soil Data  Daily Summary Page  Observations in Plain Language
KBY1 140500Z 13015KT 17/15 A3002 RMK A01 T01720152  RH  088%=      5-min Rain = 0
KBY1 140501Z 13021KT 17/15 A3002 RMK A01 T01700150  RH  088%=      5-min Rain = 0
KBY1 140502Z 12019G24KT 17/15 A3001 RMK A01 T01680149  RH  088%=      5-min Rain = 0
KBY1 140503Z 13017KT 17/15 A30 RMK A01 T01670148  RH  089%=      5-min Rain = 0
KBY1 140504Z 12020KT 17/15 A2999 RMK A01 T01650149  RH  090%=      5-min Rain = 0.01
KBY1 140505Z 13021G28KT 16/15 A2999 RMK A01 T01640148  RH  090%=      5-min Rain = 0
KBY1 140506Z 13017KT 16/15 A2998 RMK A01 T01630147  RH  090%=      5-min Rain = 0
KBY1 140507Z 14020G25KT 16/15 A2997 RMK A01 T01620148  RH  091%=      5-min Rain = 0
KBY1 140508Z 13017G22KT 16/15 A2997 RMK A01 T01620149  RH  092%=      5-min Rain = 0.01
KBY1 140509Z 14018G24KT 16/15 A2997 RMK A01 T01620149  RH  092%=      5-min Rain = 0
KBY1 140510Z 14019G24KT 16/15 A2997 RMK A01 T01620147  RH  091%=      5-min Rain = 0.01
KBY1 140511Z 13016KT 16/15 A2998 RMK A01 T01620147  RH  090%=      5-min Rain = 0
KBY1 140512Z 13018G24KT 16/15 A2998 RMK A01 T01630146  RH  090%=      5-min Rain = 0
KBY1 140513Z 12017KT 16/15 A2998 RMK A01 T01620146  RH  090%=      5-min Rain = 0
KBY1 140514Z 11016G24KT 16/15 A2998 RMK A01 T01630145  RH  089%=      5-min Rain = 0.01
KBY1 140515Z 11016KT 16/15 A2998 RMK A01 T01630146  RH  090%=      5-min Rain = 0
KBY1 140516Z 11018KT 16/15 A2998 RMK A01 T01630146  RH  089%=      5-min Rain = 0
KBY1 140517Z 11016G22KT 16/15 A2998 RMK A01 T01630146  RH  089%=      5-min Rain = 0
KBY1 140518Z 11019KT 16/15 A2998 RMK A01 T01640145  RH  089%=      5-min Rain = 0
KBY1 140519Z 11016KT 16/15 A2998 RMK A01 T01640146  RH  089%=      5-min Rain = 0
KBY1 140520Z 11013G18KT 17/15 A2998 RMK A01 T01650146  RH  089%=      5-min Rain = 0
KBY1 140521Z 11013KT 17/15 A2997 RMK A01 T01650147  RH  089%=      5-min Rain = 0
KBY1 140522Z 12015KT 16/15 A2997 RMK A01 T01640147  RH  090%=      5-min Rain = 0
KBY1 140523Z 12016G22KT 16/15 A2996 RMK A01 T01640147  RH  089%=      5-min Rain = 0
KBY1 140524Z 12013G18KT 16/15 A2996 RMK A01 T01640147  RH  089%=      5-min Rain = 0
KBY1 140525Z 12014KT 17/15 A2995 RMK A01 T01650147  RH  089%=      5-min Rain = 0
KBY1 140526Z 12018G23KT 17/15 A2995 RMK A01 T01650147  RH  089%=      5-min Rain = 0
KBY1 140527Z 12018KT 16/15 A2995 RMK A01 T01640147  RH  089%=      5-min Rain = 0
KBY1 140528Z 12017G23KT 16/15 A2995 RMK A01 T01640147  RH  089%=      5-min Rain = 0
KBY1 140529Z 13015G20KT 16/15 A2995 RMK A01 T01640146  RH  089%=      5-min Rain = 0
KBY1 140530Z 13015G21KT 16/15 A2995 RMK A01 T01640147  RH  090%=      5-min Rain = 0
KBY1 140531Z 13015KT 16/15 A2995 RMK A01 T01640147  RH  090%=      5-min Rain = 0
KBY1 140532Z 13014KT 16/15 A2995 RMK A01 T01640147  RH  090%=      5-min Rain = 0
KBY1 140533Z 13012KT 16/15 A2995 RMK A01 T01630148  RH  090%=      5-min Rain = 0
KBY1 140534Z 12012KT 16/15 A2995 RMK A01 T01630148  RH  091%=      5-min Rain = 0
KBY1 140535Z 13012G17KT 16/15 A2995 RMK A01 T01630148  RH  091%=      5-min Rain = 0
KBY1 140536Z 13013KT 16/15 A2995 RMK A01 T01630148  RH  091%=      5-min Rain = 0
KBY1 140537Z 13012KT 16/15 A2995 RMK A01 T01640149  RH  090%=      5-min Rain = 0
KBY1 140538Z 13012KT 17/15 A2995 RMK A01 T01650150  RH  090%=      5-min Rain = 0
KBY1 140539Z 13011KT 17/15 A2995 RMK A01 T01670150  RH  090%=      5-min Rain = 0
KBY1 140540Z 13010KT 17/15 A2995 RMK A01 T01690152  RH  090%=      5-min Rain = 0
KBY1 140541Z 13010KT 17/15 A2995 RMK A01 T01700153  RH  089%=      5-min Rain = 0
KBY1 140542Z 14010G15KT 17/15 A2995 RMK A01 T01720153  RH  089%=      5-min Rain = 0
KBY1 140543Z 13010KT 17/15 A2995 RMK A01 T01720154  RH  089%=      5-min Rain = 0
KBY1 140544Z 14009KT 17/16 A2995 RMK A01 T01730155  RH  089%=      5-min Rain = 0
KBY1 140545Z 14008KT 17/16 A2995 RMK A01 T01730155  RH  089%=      5-min Rain = 0
KBY1 140546Z 14010KT 17/16 A2995 RMK A01 T01740155  RH  088%=      5-min Rain = 0
KBY1 140547Z 14008KT 18/16 A2995 RMK A01 T01750155  RH  088%=      5-min Rain = 0
KBY1 140548Z 14012KT 18/16 A2995 RMK A01 T01760155  RH  087%=      5-min Rain = 0
KBY1 140549Z 15010KT 18/15 A2995 RMK A01 T01760154  RH  087%=      5-min Rain = 0
KBY1 140550Z 14010KT 18/16 A2995 RMK A01 T01780155  RH  086%=      5-min Rain = 0
KBY1 140551Z 15010KT 18/16 A2996 RMK A01 T01790156  RH  087%=      5-min Rain = 0
KBY1 140552Z 16008KT 18/16 A2996 RMK A01 T01790157  RH  087%=      5-min Rain = 0
KBY1 140553Z 15011KT 18/16 A2996 RMK A01 T01780156  RH  087%=      5-min Rain = 0
KBY1 140554Z 15010KT 18/16 A2996 RMK A01 T01790155  RH  086%=      5-min Rain = 0
KBY1 140555Z 15009KT 18/16 A2996 RMK A01 T01800155  RH  085%=      5-min Rain = 0
KBY1 140556Z 16013KT 18/15 A2996 RMK A01 T01810154  RH  084%=      5-min Rain = 0
KBY1 140557Z 15012KT 18/15 A2996 RMK A01 T01820154  RH  084%=      5-min Rain = 0
KBY1 140558Z 16011KT 18/15 A2996 RMK A01 T01830154  RH  083%=      5-min Rain = 0
KBY1 140559Z 15010KT 18/15 A2996 RMK A01 T01840154  RH  083%=      5-min Rain = 0
KBY1 140600Z 16011KT 18/15 A2996 RMK A01 T01840154  RH  083%=      5-min Rain = 0
KBY1 140601Z 15013KT 18/15 A2996 RMK A01 T01830152  RH  082%=      5-min Rain = 0
KBY1 140602Z 15014KT 18/15 A2996 RMK A01 T01830151  RH  082%=      5-min Rain = 0
KBY1 140603Z 15016G21KT 18/15 A2996 RMK A01 T01830150  RH  081%=      5-min Rain = 0
KBY1 140604Z 15016KT 18/15 A2996 RMK A01 T01830148  RH  080%=      5-min Rain = 0
KBY1 140605Z 16014KT 18/15 A2996 RMK A01 T01820148  RH  080%=      5-min Rain = 0
KBY1 140606Z 15014KT 18/15 A2996 RMK A01 T01810148  RH  081%=      5-min Rain = 0
KBY1 140607Z 15015KT 18/15 A2996 RMK A01 T01800148  RH  081%=      5-min Rain = 0
KBY1 140608Z 15016KT 18/15 A2996 RMK A01 T01790147  RH  081%=      5-min Rain = 0
KBY1 140609Z 15015KT 18/15 A2996 RMK A01 T01790147  RH  081%=      5-min Rain = 0
KBY1 140610Z 16012G17KT 18/15 A2996 RMK A01 T01790147  RH  081%=      5-min Rain = 0
KBY1 140611Z 15011G16KT 18/15 A2996 RMK A01 T01790147  RH  082%=      5-min Rain = 0
KBY1 140612Z 15012KT 18/15 A2997 RMK A01 T01780148  RH  082%=      5-min Rain = 0
KBY1 140613Z 15012KT 18/15 A2997 RMK A01 T01780148  RH  082%=      5-min Rain = 0
KBY1 140614Z 16011G17KT 18/15 A2997 RMK A01 T01780147  RH  082%=      5-min Rain = 0
KBY1 140615Z 16012G17KT 18/15 A2997 RMK A01 T01780148  RH  083%=      5-min Rain = 0
KBY1 140616Z 16011KT 18/15 A2997 RMK A01 T01780149  RH  083%=      5-min Rain = 0
KBY1 140617Z 16013KT 18/15 A2997 RMK A01 T01780149  RH  083%=      5-min Rain = 0
KBY1 140618Z 15011KT 18/15 A2997 RMK A01 T01790148  RH  082%=      5-min Rain = 0
KBY1 140619Z 15011KT 18/15 A2997 RMK A01 T01790150  RH  083%=      5-min Rain = 0
KBY1 140620Z 16012KT 18/15 A2997 RMK A01 T01790149  RH  083%=      5-min Rain = 0
KBY1 140621Z 16010KT 18/15 A2997 RMK A01 T01790148  RH  083%=      5-min Rain = 0
KBY1 140622Z 16012KT 18/15 A2997 RMK A01 T01790149  RH  083%=      5-min Rain = 0
KBY1 140623Z 16011G17KT 18/15 A2997 RMK A01 T01790149  RH  083%=      5-min Rain = 0
KBY1 140624Z 16013KT 18/15 A2997 RMK A01 T01790149  RH  082%=      5-min Rain = 0
KBY1 140625Z 16012KT 18/15 A2996 RMK A01 T01800149  RH  082%=      5-min Rain = 0
KBY1 140626Z 16010KT 18/15 A2996 RMK A01 T01820150  RH  082%=      5-min Rain = 0
KBY1 140627Z 16011KT 18/15 A2997 RMK A01 T01820151  RH  082%=      5-min Rain = 0
KBY1 140628Z 16010G17KT 18/15 A2997 RMK A01 T01810151  RH  083%=      5-min Rain = 0
KBY1 140629Z 16010G16KT 18/15 A2997 RMK A01 T01810151  RH  083%=      5-min Rain = 0
KBY1 140630Z 17011KT 18/15 A2997 RMK A01 T01810152  RH  083%=      5-min Rain = 0
KBY1 140631Z 16011KT 18/15 A2997 RMK A01 T01810152  RH  083%=      5-min Rain = 0
KBY1 140632Z 18009KT 18/15 A2998 RMK A01 T01820153  RH  083%=      5-min Rain = 0
KBY1 140633Z 17008KT 18/15 A2998 RMK A01 T01820153  RH  083%=      5-min Rain = 0
KBY1 140634Z 17008KT 18/15 A2998 RMK A01 T01820153  RH  083%=      5-min Rain = 0
KBY1 140635Z 17009KT 18/15 A2998 RMK A01 T01830153  RH  083%=      5-min Rain = 0
KBY1 140636Z 16008KT 18/15 A2998 RMK A01 T01830153  RH  083%=      5-min Rain = 0
KBY1 140637Z 16008KT 18/16 A2998 RMK A01 T01840155  RH  083%=      5-min Rain = 0
KBY1 140638Z 16010KT 18/15 A2998 RMK A01 T01840154  RH  083%=      5-min Rain = 0
KBY1 140639Z 15008KT 19/15 A2998 RMK A01 T01850154  RH  082%=      5-min Rain = 0
KBY1 140640Z 14006KT 19/15 A2998 RMK A01 T01860154  RH  082%=      5-min Rain = 0
KBY1 140641Z 14006KT 19/16 A2998 RMK A01 T01860155  RH  082%=      5-min Rain = 0
KBY1 140642Z 14006KT 19/16 A2998 RMK A01 T01860156  RH  083%=      5-min Rain = 0
KBY1 140643Z 14007KT 19/16 A2997 RMK A01 T01860157  RH  083%=      5-min Rain = 0
KBY1 140644Z 13009KT 19/16 A2998 RMK A01 T01860156  RH  082%=      5-min Rain = 0
KBY1 140645Z 13009KT 19/16 A2997 RMK A01 T01880156  RH  082%=      5-min Rain = 0
KBY1 140646Z 12009KT 19/16 A2997 RMK A01 T01890157  RH  082%=      5-min Rain = 0
KBY1 140647Z 12008KT 19/16 A2997 RMK A01 T01890158  RH  082%=      5-min Rain = 0
KBY1 140648Z 12008KT 19/16 A2997 RMK A01 T01890158  RH  083%=      5-min Rain = 0
KBY1 140649Z 12009KT 19/16 A2997 RMK A01 T01880158  RH  083%=      5-min Rain = 0
KBY1 140650Z 12009KT 19/16 A2997 RMK A01 T01880158  RH  083%=      5-min Rain = 0
KBY1 140651Z 12008KT 19/16 A2997 RMK A01 T01880159  RH  083%=      5-min Rain = 0
KBY1 140652Z 12008KT 19/16 A2997 RMK A01 T01880160  RH  084%=      5-min Rain = 0
KBY1 140653Z 11007KT 19/16 A2997 RMK A01 T01870160  RH  084%=      5-min Rain = 0
KBY1 140654Z 11007KT 19/16 A2997 RMK A01 T01860160  RH  085%=      5-min Rain = 0
KBY1 140655Z 11008KT 19/16 A2997 RMK A01 T01850160  RH  085%=      5-min Rain = 0
KBY1 140656Z 11009KT 19/16 A2997 RMK A01 T01850160  RH  086%=      5-min Rain = 0
KBY1 140657Z 10011KT 19/16 A2997 RMK A01 T01850160  RH  086%=      5-min Rain = 0
KBY1 140658Z 10011KT 19/16 A2997 RMK A01 T01850160  RH  085%=      5-min Rain = 0
KBY1 140659Z 10010KT 19/16 A2997 RMK A01 T01860160  RH  085%=      5-min Rain = 0
KBY1 140700Z 11009KT 19/16 A2997 RMK A01 T01860161  RH  085%=      5-min Rain = 0
KBY1 140701Z 11008KT 19/16 A2997 RMK A01 T01860162  RH  086%=      5-min Rain = 0
KBY1 140702Z 11009KT 19/16 A2997 RMK A01 T01850161  RH  086%=      5-min Rain = 0
KBY1 140703Z 11008KT 19/16 A2997 RMK A01 T01850161  RH  086%=      5-min Rain = 0
KBY1 140704Z 11008KT 19/16 A2997 RMK A01 T01850161  RH  086%=      5-min Rain = 0
KBY1 140705Z 11009KT 19/16 A2997 RMK A01 T01850161  RH  086%=      5-min Rain = 0
KBY1 140706Z 11009KT 19/16 A2997 RMK A01 T01850159  RH  085%=      5-min Rain = 0
KBY1 140707Z 11007KT 19/16 A2997 RMK A01 T01860160  RH  085%=      5-min Rain = 0
KBY1 140708Z 12009KT 19/16 A2997 RMK A01 T01860160  RH  085%=      5-min Rain = 0
KBY1 140709Z 12008KT 19/16 A2998 RMK A01 T01860159  RH  085%=      5-min Rain = 0
KBY1 140710Z 12006KT 19/16 A2998 RMK A01 T01860159  RH  084%=      5-min Rain = 0
KBY1 140711Z 12007KT 19/16 A2998 RMK A01 T01860159  RH  084%=      5-min Rain = 0
KBY1 140712Z 11005KT 19/16 A2998 RMK A01 T01870158  RH  084%=      5-min Rain = 0
KBY1 140713Z 11006KT 19/16 A2998 RMK A01 T01860159  RH  084%=      5-min Rain = 0
KBY1 140714Z 11006KT 19/16 A2998 RMK A01 T01860159  RH  084%=      5-min Rain = 0
KBY1 140715Z 11007KT 19/16 A2998 RMK A01 T01860159  RH  084%=      5-min Rain = 0
KBY1 140716Z 11008KT 19/16 A2998 RMK A01 T01860159  RH  084%=      5-min Rain = 0
KBY1 140717Z 12008KT 19/16 A2998 RMK A01 T01850159  RH  084%=      5-min Rain = 0
KBY1 140718Z 11008KT 19/16 A2998 RMK A01 T01850158  RH  084%=      5-min Rain = 0
KBY1 140719Z 11009KT 19/16 A2998 RMK A01 T01850157  RH  084%=      5-min Rain = 0
KBY1 140720Z 11008KT 19/16 A2998 RMK A01 T01850157  RH  084%=      5-min Rain = 0
KBY1 140721Z 11008KT 19/16 A2998 RMK A01 T01850157  RH  084%=      5-min Rain = 0
KBY1 140722Z 11008KT 19/16 A2998 RMK A01 T01850157  RH  084%=      5-min Rain = 0
KBY1 140723Z 11008KT 19/16 A2998 RMK A01 T01850158  RH  084%=      5-min Rain = 0
KBY1 140724Z 11009KT 18/16 A2998 RMK A01 T01840157  RH  084%=      5-min Rain = 0
KBY1 140725Z 12008KT 18/16 A2998 RMK A01 T01840157  RH  084%=      5-min Rain = 0
KBY1 140726Z 12007KT 18/16 A2998 RMK A01 T01840157  RH  084%=      5-min Rain = 0
KBY1 140727Z 11009KT 18/16 A2998 RMK A01 T01840156  RH  084%=      5-min Rain = 0
KBY1 140728Z 12009KT 18/16 A2998 RMK A01 T01840156  RH  084%=      5-min Rain = 0
KBY1 140729Z 11008KT 18/16 A2998 RMK A01 T01840155  RH  083%=      5-min Rain = 0
KBY1 140730Z 11008KT 18/16 A2998 RMK A01 T01840155  RH  083%=      5-min Rain = 0
KBY1 140731Z 11008KT 18/16 A2998 RMK A01 T01840156  RH  084%=      5-min Rain = 0
KBY1 140732Z 11008KT 18/16 A2998 RMK A01 T01830155  RH  084%=      5-min Rain = 0
KBY1 140733Z 11011KT 18/16 A2998 RMK A01 T01830155  RH  084%=      5-min Rain = 0
KBY1 140734Z 10009KT 18/16 A2998 RMK A01 T01830155  RH  084%=      5-min Rain = 0
KBY1 140735Z 10008KT 18/16 A2998 RMK A01 T01830155  RH  084%=      5-min Rain = 0
KBY1 140736Z 10008KT 18/16 A2998 RMK A01 T01820155  RH  085%=      5-min Rain = 0
KBY1 140737Z 10008KT 18/16 A2998 RMK A01 T01810155  RH  085%=      5-min Rain = 0
KBY1 140738Z 10008KT 18/16 A2997 RMK A01 T01800156  RH  086%=      5-min Rain = 0
KBY1 140739Z 10008KT 18/16 A2997 RMK A01 T01790156  RH  086%=      5-min Rain = 0
KBY1 140740Z 10010KT 18/16 A2997 RMK A01 T01790155  RH  086%=      5-min Rain = 0
KBY1 140741Z 10011KT 18/15 A2997 RMK A01 T01790154  RH  085%=      5-min Rain = 0
KBY1 140742Z 11010KT 18/16 A2997 RMK A01 T01800155  RH  085%=      5-min Rain = 0
KBY1 140743Z 11010KT 18/16 A2997 RMK A01 T01800155  RH  085%=      5-min Rain = 0
KBY1 140744Z 10009KT 18/16 A2997 RMK A01 T01790155  RH  086%=      5-min Rain = 0
KBY1 140745Z 10010KT 18/16 A2997 RMK A01 T01780155  RH  086%=      5-min Rain = 0
KBY1 140746Z 10010KT 18/16 A2996 RMK A01 T01780155  RH  086%=      5-min Rain = 0
KBY1 140747Z 10010KT 18/15 A2996 RMK A01 T01780154  RH  086%=      5-min Rain = 0
KBY1 140748Z 10009KT 18/16 A2996 RMK A01 T01790155  RH  086%=      5-min Rain = 0
KBY1 140749Z 11009KT 18/16 A2996 RMK A01 T01780155  RH  086%=      5-min Rain = 0
KBY1 140750Z 10010KT 18/16 A2996 RMK A01 T01780155  RH  087%=      5-min Rain = 0
KBY1 140751Z 10009KT 18/16 A2996 RMK A01 T01780155  RH  087%=      5-min Rain = 0
KBY1 140752Z 10010KT 18/16 A2996 RMK A01 T01780155  RH  087%=      5-min Rain = 0
KBY1 140753Z 10010KT 18/16 A2995 RMK A01 T01780156  RH  087%=      5-min Rain = 0
KBY1 140754Z 10011KT 18/16 A2995 RMK A01 T01770156  RH  087%=      5-min Rain = 0
KBY1 140755Z 10010KT 18/16 A2995 RMK A01 T01770155  RH  087%=      5-min Rain = 0
KBY1 140756Z 09009KT 18/16 A2995 RMK A01 T01770156  RH  087%=      5-min Rain = 0
KBY1 140757Z 10009KT 18/16 A2995 RMK A01 T01770155  RH  087%=      5-min Rain = 0
KBY1 140758Z 10008KT 18/16 A2995 RMK A01 T01770155  RH  087%=      5-min Rain = 0
KBY1 140759Z 09008KT 18/16 A2995 RMK A01 T01770155  RH  087%=      5-min Rain = 0
KBY1 140800Z 10009KT 18/16 A2995 RMK A01 T01760155  RH  087%=      5-min Rain = 0
KBY1 140801Z 10009KT 18/16 A2995 RMK A01 T01760156  RH  088%=      5-min Rain = 0
KBY1 140802Z 10009KT 18/16 A2995 RMK A01 T01760155  RH  088%=      5-min Rain = 0
KBY1 140803Z 09009KT 18/16 A2995 RMK A01 T01750155  RH  088%=      5-min Rain = 0
KBY1 140804Z 10010KT 18/16 A2995 RMK A01 T01750155  RH  088%=      5-min Rain = 0
KBY1 140805Z 10009KT 18/16 A2995 RMK A01 T01760155  RH  087%=      5-min Rain = 0
KBY1 140806Z 09009KT 18/16 A2995 RMK A01 T01760155  RH  088%=      5-min Rain = 0
KBY1 140807Z 09008KT 18/16 A2995 RMK A01 T01760155  RH  087%=      5-min Rain = 0
KBY1 140808Z 10008KT 18/16 A2995 RMK A01 T01760155  RH  087%=      5-min Rain = 0
KBY1 140809Z 10008KT 18/16 A2995 RMK A01 T01760155  RH  087%=      5-min Rain = 0
KBY1 140810Z 10008KT 18/15 A2996 RMK A01 T01760154  RH  087%=      5-min Rain = 0
KBY1 140811Z 10010KT 18/15 A2996 RMK A01 T01760154  RH  087%=      5-min Rain = 0
KBY1 140812Z 10006KT 18/15 A2996 RMK A01 T01770154  RH  087%=      5-min Rain = 0
KBY1 140813Z 10007KT 18/16 A2996 RMK A01 T01770156  RH  087%=      5-min Rain = 0
KBY1 140814Z 10008KT 18/16 A2996 RMK A01 T01760155  RH  088%=      5-min Rain = 0
KBY1 140815Z 11007KT 18/16 A2996 RMK A01 T01760155  RH  088%=      5-min Rain = 0
KBY1 140816Z 11007KT 18/16 A2996 RMK A01 T01760156  RH  088%=      5-min Rain = 0
KBY1 140817Z 11007KT 18/16 A2996 RMK A01 T01750155  RH  088%=      5-min Rain = 0
KBY1 140818Z 11008KT 18/16 A2996 RMK A01 T01750155  RH  088%=      5-min Rain = 0
KBY1 140819Z 11007KT 18/15 A2996 RMK A01 T01750154  RH  087%=      5-min Rain = 0
KBY1 140820Z 10007KT 18/16 A2995 RMK A01 T01760155  RH  087%=      5-min Rain = 0
KBY1 140821Z 10008KT 18/16 A2995 RMK A01 T01760155  RH  087%=      5-min Rain = 0
KBY1 140822Z 10007KT 18/16 A2995 RMK A01 T01760155  RH  087%=      5-min Rain = 0
KBY1 140823Z 10007KT 18/16 A2995 RMK A01 T01750155  RH  088%=      5-min Rain = 0
KBY1 140824Z 09007KT 18/16 A2995 RMK A01 T01750155  RH  088%=      5-min Rain = 0
KBY1 140825Z 09006KT 18/16 A2995 RMK A01 T01750155  RH  088%=      5-min Rain = 0
KBY1 140826Z 09007KT 18/16 A2995 RMK A01 T01750155  RH  088%=      5-min Rain = 0
KBY1 140827Z 09007KT 17/16 A2995 RMK A01 T01740155  RH  088%=      5-min Rain = 0
KBY1 140828Z 09007KT 18/16 A2995 RMK A01 T01750155  RH  088%=      5-min Rain = 0
KBY1 140829Z 09006KT 17/16 A2995 RMK A01 T01740155  RH  089%=      5-min Rain = 0
KBY1 140830Z 08006KT 17/16 A2995 RMK A01 T01730155  RH  089%=      5-min Rain = 0
KBY1 140831Z 09007KT 17/16 A2995 RMK A01 T01730155  RH  089%=      5-min Rain = 0
KBY1 140832Z 08007KT 17/16 A2995 RMK A01 T01730155  RH  089%=      5-min Rain = 0
KBY1 140833Z 08007KT 17/16 A2995 RMK A01 T01730155  RH  089%=      5-min Rain = 0
KBY1 140834Z 09007KT 17/16 A2995 RMK A01 T01730155  RH  089%=      5-min Rain = 0
KBY1 140835Z 09007KT 17/16 A2995 RMK A01 T01730155  RH  089%=      5-min Rain = 0
KBY1 140836Z 09007KT 17/16 A2995 RMK A01 T01720155  RH  090%=      5-min Rain = 0
KBY1 140837Z 09008KT 17/16 A2994 RMK A01 T01720155  RH  090%=      5-min Rain = 0
KBY1 140838Z 09008KT 17/16 A2994 RMK A01 T01720155  RH  090%=      5-min Rain = 0
KBY1 140839Z 09008KT 17/16 A2994 RMK A01 T01720155  RH  090%=      5-min Rain = 0
KBY1 140840Z 10008KT 17/16 A2994 RMK A01 T01720155  RH  090%=      5-min Rain = 0
KBY1 140841Z 10009KT 17/16 A2994 RMK A01 T01720155  RH  090%=      5-min Rain = 0
KBY1 140842Z 10008KT 17/16 A2994 RMK A01 T01720155  RH  090%=      5-min Rain = 0
KBY1 140843Z 10008KT 17/16 A2994 RMK A01 T01720156  RH  090%=      5-min Rain = 0
KBY1 140844Z 10007KT 17/16 A2994 RMK A01 T01720156  RH  090%=      5-min Rain = 0
KBY1 140845Z 10007KT 17/16 A2994 RMK A01 T01720156  RH  091%=      5-min Rain = 0
KBY1 140846Z 10006KT 17/16 A2994 RMK A01 T01720156  RH  091%=      5-min Rain = 0
KBY1 140847Z 10006KT 17/16 A2994 RMK A01 T01720156  RH  090%=      5-min Rain = 0
KBY1 140848Z 10007KT 17/16 A2994 RMK A01 T01720156  RH  090%=      5-min Rain = 0
KBY1 140849Z 10007KT 17/16 A2994 RMK A01 T01720156  RH  090%=      5-min Rain = 0
KBY1 140850Z 10007KT 17/16 A2994 RMK A01 T01720156  RH  090%=      5-min Rain = 0
KBY1 140851Z 10008KT 17/16 A2994 RMK A01 T01720156  RH  090%=      5-min Rain = 0
KBY1 140852Z 10007KT 17/16 A2994 RMK A01 T01720156  RH  091%=      5-min Rain = 0
KBY1 140853Z 11006KT 17/16 A2994 RMK A01 T01720156  RH  091%=      5-min Rain = 0
KBY1 140854Z 11008KT 17/16 A2994 RMK A01 T01710156  RH  091%=      5-min Rain = 0
KBY1 140855Z 10007KT 17/16 A2994 RMK A01 T01710157  RH  091%=      5-min Rain = 0
KBY1 140856Z 10006KT 17/16 A2994 RMK A01 T01710157  RH  091%=      5-min Rain = 0
KBY1 140857Z 10005KT 17/16 A2994 RMK A01 T01710157  RH  091%=      5-min Rain = 0
KBY1 140858Z 10005KT 17/16 A2994 RMK A01 T01710157  RH  091%=      5-min Rain = 0
KBY1 140859Z 10005KT 17/16 A2994 RMK A01 T01700156  RH  092%=      5-min Rain = 0
KBY1 140900Z 10004KT 17/16 A2994 RMK A01 T01700156  RH  092%=      5-min Rain = 0
KBY1 140901Z 10005KT 17/16 A2994 RMK A01 T01700156  RH  092%=      5-min Rain = 0
KBY1 140902Z 10004KT 17/16 A2994 RMK A01 T01690156  RH  092%=      5-min Rain = 0
KBY1 140903Z 10004KT 17/16 A2994 RMK A01 T01690156  RH  092%=      5-min Rain = 0
KBY1 140904Z 10005KT 17/16 A2993 RMK A01 T01700156  RH  091%=      5-min Rain = 0
KBY1 140905Z 10005KT 17/16 A2993 RMK A01 T01700155  RH  091%=      5-min Rain = 0
KBY1 140906Z 10004KT 17/16 A2993 RMK A01 T01700155  RH  091%=      5-min Rain = 0
KBY1 140907Z 11005KT 17/16 A2993 RMK A01 T01700155  RH  091%=      5-min Rain = 0
KBY1 140908Z 10006KT 17/16 A2993 RMK A01 T01700155  RH  091%=      5-min Rain = 0
KBY1 140909Z 10006KT 17/16 A2993 RMK A01 T01700155  RH  091%=      5-min Rain = 0
KBY1 140910Z 10005KT 17/16 A2993 RMK A01 T01690155  RH  092%=      5-min Rain = 0
KBY1 140911Z 09006KT 17/16 A2993 RMK A01 T01680155  RH  092%=      5-min Rain = 0
KBY1 140912Z 09006KT 17/16 A2993 RMK A01 T01680155  RH  092%=      5-min Rain = 0
KBY1 140913Z 09006KT 17/16 A2993 RMK A01 T01680155  RH  092%=      5-min Rain = 0
KBY1 140914Z 09007KT 17/16 A2993 RMK A01 T01680155  RH  092%=      5-min Rain = 0
KBY1 140915Z 08007KT 17/16 A2993 RMK A01 T01680156  RH  092%=      5-min Rain = 0
KBY1 140916Z 09008KT 17/16 A2993 RMK A01 T01680156  RH  092%=      5-min Rain = 0
KBY1 140917Z 09008KT 17/16 A2993 RMK A01 T01680156  RH  092%=      5-min Rain = 0
KBY1 140918Z 08007KT 17/16 A2993 RMK A01 T01680156  RH  092%=      5-min Rain = 0
KBY1 140919Z 08008KT 17/16 A2992 RMK A01 T01690156  RH  092%=      5-min Rain = 0
KBY1 140920Z 08007KT 17/16 A2992 RMK A01 T01690155  RH  091%=      5-min Rain = 0
KBY1 140921Z 09007KT 17/16 A2992 RMK A01 T01690155  RH  091%=      5-min Rain = 0
KBY1 140922Z 09007KT 17/16 A2992 RMK A01 T01690156  RH  092%=      5-min Rain = 0
KBY1 140923Z 09008KT 17/16 A2992 RMK A01 T01690156  RH  092%=      5-min Rain = 0
KBY1 140924Z 10007KT 17/16 A2992 RMK A01 T01690156  RH  092%=      5-min Rain = 0
KBY1 140925Z 13003KT 17/16 A2992 RMK A01 T01690156  RH  092%=      5-min Rain = 0
KBY1 140926Z 12004KT 17/16 A2992 RMK A01 T01690156  RH  092%=      5-min Rain = 0
KBY1 140927Z 11004KT 17/16 A2992 RMK A01 T01690155  RH  092%=      5-min Rain = 0
KBY1 140928Z 10005KT 17/16 A2992 RMK A01 T01680155  RH  092%=      5-min Rain = 0
KBY1 140929Z 10005KT 17/16 A2992 RMK A01 T01680155  RH  092%=      5-min Rain = 0
KBY1 140930Z 12003KT 17/16 A2992 RMK A01 T01680155  RH  092%=      5-min Rain = 0
KBY1 140931Z 10004KT 17/16 A2992 RMK A01 T01680155  RH  092%=      5-min Rain = 0
KBY1 140932Z 11004KT 17/16 A2992 RMK A01 T01680155  RH  092%=      5-min Rain = 0
KBY1 140933Z 12003KT 17/16 A2992 RMK A01 T01680155  RH  092%=      5-min Rain = 0
KBY1 140934Z 12004KT 17/16 A2992 RMK A01 T01680155  RH  092%=      5-min Rain = 0
KBY1 140935Z 10004KT 17/16 A2992 RMK A01 T01670155  RH  092%=      5-min Rain = 0
KBY1 140936Z 10005KT 17/15 A2992 RMK A01 T01670154  RH  092%=      5-min Rain = 0
KBY1 140937Z 11004KT 17/15 A2992 RMK A01 T01670154  RH  092%=      5-min Rain = 0
KBY1 140938Z 09004KT 17/16 A2992 RMK A01 T01660155  RH  093%=      5-min Rain = 0
KBY1 140939Z 08004KT 17/15 A2992 RMK A01 T01660154  RH  093%=      5-min Rain = 0
KBY1 140940Z 07004KT 17/16 A2992 RMK A01 T01660155  RH  093%=      5-min Rain = 0
KBY1 140941Z 07003KT 17/16 A2992 RMK A01 T01660155  RH  093%=      5-min Rain = 0
KBY1 140942Z 06003KT 17/15 A2992 RMK A01 T01660154  RH  093%=      5-min Rain = 0
KBY1 140943Z 07004KT 17/16 A2992 RMK A01 T01660155  RH  093%=      5-min Rain = 0
KBY1 140944Z 07004KT 17/16 A2992 RMK A01 T01660155  RH  093%=      5-min Rain = 0
KBY1 140945Z 07004KT 17/16 A2992 RMK A01 T01660156  RH  094%=      5-min Rain = 0
KBY1 140946Z 05003KT 17/16 A2992 RMK A01 T01660156  RH  094%=      5-min Rain = 0
KBY1 140947Z 06003KT 17/16 A2992 RMK A01 T01670156  RH  094%=      5-min Rain = 0
KBY1 140948Z 06004KT 17/16 A2991 RMK A01 T01670157  RH  093%=      5-min Rain = 0
KBY1 140949Z 05005KT 17/16 A2991 RMK A01 T01670156  RH  093%=      5-min Rain = 0
KBY1 140950Z 05006KT 17/16 A2991 RMK A01 T01680157  RH  093%=      5-min Rain = 0
KBY1 140951Z 05005KT 17/16 A2991 RMK A01 T01680157  RH  093%=      5-min Rain = 0
KBY1 140952Z 05004KT 17/16 A2991 RMK A01 T01690158  RH  093%=      5-min Rain = 0
KBY1 140953Z 06002KT 17/16 A2991 RMK A01 T01690157  RH  093%=      5-min Rain = 0
KBY1 140954Z 04002KT 17/16 A2991 RMK A01 T01690157  RH  093%=      5-min Rain = 0
KBY1 140955Z 04004KT 17/16 A2991 RMK A01 T01690157  RH  093%=      5-min Rain = 0
KBY1 140956Z 05004KT 17/16 A2991 RMK A01 T01690158  RH  093%=      5-min Rain = 0
KBY1 140957Z 05004KT 17/16 A2991 RMK A01 T01690157  RH  093%=      5-min Rain = 0
KBY1 140958Z 05004KT 17/16 A2991 RMK A01 T01690157  RH  092%=      5-min Rain = 0
KBY1 140959Z 05003KT 17/16 A2991 RMK A01 T01690157  RH  092%=      5-min Rain = 0
KBY1 141000Z 04004KT 17/16 A2991 RMK A01 T01690157  RH  093%=      5-min Rain = 0
KBY1 141001Z 04003KT 17/16 A2991 RMK A01 T01680157  RH  093%=      5-min Rain = 0
KBY1 141002Z 03004KT 17/16 A2991 RMK A01 T01690157  RH  093%=      5-min Rain = 0
KBY1 141003Z 04004KT 17/16 A2991 RMK A01 T01690157  RH  093%=      5-min Rain = 0
KBY1 141004Z 04003KT 17/16 A2991 RMK A01 T01690157  RH  093%=      5-min Rain = 0
KBY1 141005Z 05003KT 17/16 A2991 RMK A01 T01690156  RH  092%=      5-min Rain = 0
KBY1 141006Z 05003KT 17/16 A2991 RMK A01 T01700156  RH  092%=      5-min Rain = 0
KBY1 141007Z 05003KT 17/16 A2991 RMK A01 T01700156  RH  091%=      5-min Rain = 0
KBY1 141008Z 05003KT 17/16 A2991 RMK A01 T01700156  RH  091%=      5-min Rain = 0
KBY1 141009Z 05003KT 17/16 A2991 RMK A01 T01700156  RH  091%=      5-min Rain = 0
KBY1 141010Z 06003KT 17/16 A299 RMK A01 T01700156  RH  092%=      5-min Rain = 0
KBY1 141011Z 07003KT 17/16 A299 RMK A01 T01700156  RH  092%=      5-min Rain = 0
KBY1 141012Z 07003KT 17/16 A299 RMK A01 T01700156  RH  092%=      5-min Rain = 0
KBY1 141013Z 08003KT 17/16 A299 RMK A01 T01690155  RH  092%=      5-min Rain = 0
KBY1 141014Z 08003KT 17/16 A299 RMK A01 T01680155  RH  092%=      5-min Rain = 0
KBY1 141015Z 08003KT 17/15 A299 RMK A01 T01670154  RH  092%=      5-min Rain = 0
KBY1 141016Z 08003KT 17/15 A299 RMK A01 T01670154  RH  092%=      5-min Rain = 0
KBY1 141017Z 08004KT 17/15 A299 RMK A01 T01660154  RH  093%=      5-min Rain = 0
KBY1 141018Z 07004KT 17/15 A299 RMK A01 T01650154  RH  093%=      5-min Rain = 0
KBY1 141019Z 07004KT 16/15 A299 RMK A01 T01640153  RH  093%=      5-min Rain = 0
KBY1 141020Z 07005KT 16/15 A299 RMK A01 T01640153  RH  094%=      5-min Rain = 0
KBY1 141021Z 07006KT 16/15 A299 RMK A01 T01630153  RH  094%=      5-min Rain = 0
KBY1 141022Z 07005KT 16/15 A299 RMK A01 T01620154  RH  095%=      5-min Rain = 0
KBY1 141023Z 07005KT 16/15 A299 RMK A01 T01620154  RH  095%=      5-min Rain = 0
KBY1 141024Z 07005KT 16/16 A299 RMK A01 T01630155  RH  095%=      5-min Rain = 0
KBY1 141025Z 08005KT 16/16 A299 RMK A01 T01630155  RH  095%=      5-min Rain = 0
KBY1 141026Z 06005KT 16/15 A299 RMK A01 T01630154  RH  095%=      5-min Rain = 0
KBY1 141027Z 06006KT 16/16 A2989 RMK A01 T01630155  RH  095%=      5-min Rain = 0
KBY1 141028Z 06005KT 16/16 A2989 RMK A01 T01640155  RH  095%=      5-min Rain = 0
KBY1 141029Z 05005KT 17/16 A2989 RMK A01 T01650156  RH  094%=      5-min Rain = 0
KBY1 141030Z 05004KT 17/16 A2989 RMK A01 T01660156  RH  094%=      5-min Rain = 0
KBY1 141031Z 05003KT 17/16 A299 RMK A01 T01660156  RH  094%=      5-min Rain = 0
KBY1 141032Z 06002KT 17/16 A299 RMK A01 T01670156  RH  093%=      5-min Rain = 0
KBY1 141033Z 04002KT 17/16 A299 RMK A01 T01660155  RH  093%=      5-min Rain = 0
KBY1 141034Z 03003KT 17/16 A299 RMK A01 T01660155  RH  093%=      5-min Rain = 0
KBY1 141035Z 02004KT 17/16 A299 RMK A01 T01670156  RH  093%=      5-min Rain = 0
KBY1 141036Z 01004KT 17/16 A299 RMK A01 T01690156  RH  092%=      5-min Rain = 0
KBY1 141037Z 00003KT 17/16 A299 RMK A01 T01700156  RH  091%=      5-min Rain = 0
KBY1 141038Z 36004KT 17/16 A299 RMK A01 T01700155  RH  091%=      5-min Rain = 0
KBY1 141039Z 36005KT 17/16 A299 RMK A01 T01700155  RH  090%=      5-min Rain = 0
KBY1 141040Z 01004KT 17/16 A299 RMK A01 T01700155  RH  091%=      5-min Rain = 0
KBY1 141041Z 02004KT 17/16 A299 RMK A01 T01700155  RH  091%=      5-min Rain = 0
KBY1 141042Z 04004KT 17/16 A299 RMK A01 T01700155  RH  091%=      5-min Rain = 0
KBY1 141043Z 05004KT 17/15 A299 RMK A01 T01700154  RH  091%=      5-min Rain = 0
KBY1 141044Z 03004KT 17/15 A2991 RMK A01 T01700154  RH  090%=      5-min Rain = 0
KBY1 141045Z 04004KT 17/15 A2991 RMK A01 T01720154  RH  090%=      5-min Rain = 0
KBY1 141046Z 04004KT 17/16 A2991 RMK A01 T01730155  RH  089%=      5-min Rain = 0
KBY1 141047Z 05004KT 17/16 A2991 RMK A01 T01740155  RH  088%=      5-min Rain = 0
KBY1 141048Z 05005KT 18/16 A2991 RMK A01 T01750155  RH  088%=      5-min Rain = 0
KBY1 141049Z 05004KT 18/16 A2991 RMK A01 T01760156  RH  088%=      5-min Rain = 0
KBY1 141050Z 07003KT 18/16 A2991 RMK A01 T01760155  RH  087%=      5-min Rain = 0
KBY1 141051Z 10002KT 18/16 A2991 RMK A01 T01780155  RH  086%=      5-min Rain = 0
KBY1 141052Z 10001KT 18/16 A2992 RMK A01 T01790155  RH  086%=      5-min Rain = 0
KBY1 141053Z 34002KT 18/16 A2992 RMK A01 T01790155  RH  086%=      5-min Rain = 0
KBY1 141054Z 34004KT 18/16 A2992 RMK A01 T01790155  RH  086%=      5-min Rain = 0
KBY1 141055Z 34005KT 18/16 A2992 RMK A01 T01800155  RH  086%=      5-min Rain = 0
KBY1 141056Z 35004KT 18/16 A2992 RMK A01 T01780155  RH  086%=      5-min Rain = 0
KBY1 141057Z 00004KT 18/15 A2992 RMK A01 T01760154  RH  087%=      5-min Rain = 0
KBY1 141058Z 00005KT 17/15 A2992 RMK A01 T01740153  RH  088%=      5-min Rain = 0
KBY1 141059Z 01005KT 17/15 A2991 RMK A01 T01720153  RH  088%=      5-min Rain = 0
KBY1 141100Z 02006KT 17/15 A2992 RMK A01 T01700153  RH  089%=      5-min Rain = 0
KBY1 141101Z 02005KT 17/15 A2992 RMK A01 T01700153  RH  090%=      5-min Rain = 0
KBY1 141102Z 02005KT 17/15 A2991 RMK A01 T01700153  RH  090%=      5-min Rain = 0
KBY1 141103Z 02005KT 17/15 A2991 RMK A01 T01690153  RH  090%=      5-min Rain = 0
KBY1 141104Z 01003KT 17/15 A2992 RMK A01 T01690153  RH  090%=      5-min Rain = 0
KBY1 141105Z 02003KT 17/15 A2992 RMK A01 T01690154  RH  091%=      5-min Rain = 0
KBY1 141106Z 03002KT 17/15 A2992 RMK A01 T01690154  RH  091%=      5-min Rain = 0
KBY1 141107Z 03002KT 17/15 A2992 RMK A01 T01680153  RH  091%=      5-min Rain = 0
KBY1 141108Z 06001KT 17/15 A2992 RMK A01 T01670153  RH  091%=      5-min Rain = 0
KBY1 141109Z 07002KT 17/15 A2992 RMK A01 T01670153  RH  091%=      5-min Rain = 0
KBY1 141110Z 07002KT 17/15 A2992 RMK A01 T01660152  RH  091%=      5-min Rain = 0
KBY1 141111Z 05001KT 17/15 A2992 RMK A01 T01660153  RH  092%=      5-min Rain = 0
KBY1 141112Z 04001KT 17/15 A2992 RMK A01 T01660154  RH  092%=      5-min Rain = 0
KBY1 141113Z 08002KT 17/15 A2992 RMK A01 T01670154  RH  092%=      5-min Rain = 0
KBY1 141114Z 05002KT 17/15 A2992 RMK A01 T01670153  RH  091%=      5-min Rain = 0
KBY1 141115Z 03002KT 17/15 A2992 RMK A01 T01670153  RH  092%=      5-min Rain = 0
KBY1 141116Z 01003KT 17/15 A2992 RMK A01 T01660153  RH  092%=      5-min Rain = 0
KBY1 141117Z 35002KT 17/15 A2992 RMK A01 T01650153  RH  092%=      5-min Rain = 0
KBY1 141118Z 34002KT 17/15 A2992 RMK A01 T01650153  RH  093%=      5-min Rain = 0
KBY1 141119Z 33001KT 17/15 A2992 RMK A01 T01650154  RH  093%=      5-min Rain = 0
KBY1 141120Z 01001KT 17/15 A2992 RMK A01 T01660154  RH  093%=      5-min Rain = 0
KBY1 141121Z 03002KT 17/15 A2992 RMK A01 T01660154  RH  093%=      5-min Rain = 0
KBY1 141122Z 02002KT 17/15 A2992 RMK A01 T01670154  RH  092%=      5-min Rain = 0
KBY1 141123Z 01002KT 17/15 A2992 RMK A01 T01670154  RH  092%=      5-min Rain = 0
KBY1 141124Z 03002KT 17/16 A2992 RMK A01 T01670155  RH  093%=      5-min Rain = 0
KBY1 141125Z 03003KT 17/16 A2992 RMK A01 T01670155  RH  093%=      5-min Rain = 0
KBY1 141126Z 04003KT 17/15 A2992 RMK A01 T01660154  RH  093%=      5-min Rain = 0
KBY1 141127Z 04003KT 17/15 A2992 RMK A01 T01660154  RH  092%=      5-min Rain = 0
KBY1 141128Z 06005KT 17/15 A2992 RMK A01 T01660154  RH  093%=      5-min Rain = 0
KBY1 141129Z 05004KT 17/16 A2992 RMK A01 T01680155  RH  092%=      5-min Rain = 0
KBY1 141130Z 05004KT 17/15 A2992 RMK A01 T01680154  RH  091%=      5-min Rain = 0
KBY1 141131Z 05004KT 17/15 A2992 RMK A01 T01680153  RH  091%=      5-min Rain = 0
KBY1 141132Z 06005KT 17/15 A2992 RMK A01 T01690153  RH  091%=      5-min Rain = 0
KBY1 141133Z 05004KT 17/15 A2992 RMK A01 T01680153  RH  091%=      5-min Rain = 0
KBY1 141134Z 07004KT 17/15 A2992 RMK A01 T01680154  RH  091%=      5-min Rain = 0
KBY1 141135Z 08004KT 17/15 A2992 RMK A01 T01680153  RH  091%=      5-min Rain = 0
KBY1 141136Z 11003KT 17/15 A2992 RMK A01 T01680152  RH  090%=      5-min Rain = 0
KBY1 141137Z 09003KT 17/15 A2992 RMK A01 T01660151  RH  091%=      5-min Rain = 0
KBY1 141138Z 09003KT 16/15 A2992 RMK A01 T01640152  RH  092%=      5-min Rain = 0
KBY1 141139Z 12002KT 16/15 A2992 RMK A01 T01630152  RH  093%=      5-min Rain = 0
KBY1 141140Z 14002KT 16/15 A2992 RMK A01 T01620151  RH  093%=      5-min Rain = 0
KBY1 141141Z 12003KT 16/15 A2992 RMK A01 T01620151  RH  093%=      5-min Rain = 0
KBY1 141142Z 13002KT 16/15 A2992 RMK A01 T01610151  RH  094%=      5-min Rain = 0
KBY1 141143Z 15002KT 16/15 A2992 RMK A01 T01610151  RH  094%=      5-min Rain = 0
KBY1 141144Z 15003KT 16/15 A2991 RMK A01 T01610151  RH  094%=      5-min Rain = 0
KBY1 141145Z 15003KT 16/15 A2991 RMK A01 T01600151  RH  094%=      5-min Rain = 0
KBY1 141146Z 15003KT 16/15 A2991 RMK A01 T01600151  RH  094%=      5-min Rain = 0
KBY1 141147Z 14004KT 16/15 A2991 RMK A01 T01600150  RH  094%=      5-min Rain = 0
KBY1 141148Z 14004KT 16/15 A2991 RMK A01 T01590150  RH  094%=      5-min Rain = 0
KBY1 141149Z 13003KT 16/15 A2991 RMK A01 T01590151  RH  095%=      5-min Rain = 0
KBY1 141150Z 12003KT 16/15 A2992 RMK A01 T01590152  RH  095%=      5-min Rain = 0
KBY1 141151Z 11003KT 16/15 A2992 RMK A01 T01590152  RH  096%=      5-min Rain = 0
KBY1 141152Z 11002KT 16/15 A2992 RMK A01 T01590152  RH  095%=      5-min Rain = 0
KBY1 141153Z 09002KT 16/15 A2992 RMK A01 T01600153  RH  096%=      5-min Rain = 0
KBY1 141154Z 08002KT 16/15 A2992 RMK A01 T01610153  RH  095%=      5-min Rain = 0
KBY1 141155Z 07001KT 16/15 A2992 RMK A01 T01610153  RH  095%=      5-min Rain = 0
KBY1 141156Z 08002KT 16/15 A2992 RMK A01 T01610154  RH  095%=      5-min Rain = 0
KBY1 141157Z 07001KT 16/15 A2992 RMK A01 T01610153  RH  095%=      5-min Rain = 0
KBY1 141158Z 09001KT 16/15 A2992 RMK A01 T01610153  RH  095%=      5-min Rain = 0
KBY1 141159Z 11001KT 16/15 A2992 RMK A01 T01620154  RH  095%=      5-min Rain = 0
KBY1 141200Z 10002KT 16/15 A2992 RMK A01 T01620154  RH  095%=      5-min Rain = 0
KBY1 141201Z 10003KT 16/15 A2992 RMK A01 T01620154  RH  094%=      5-min Rain = 0
KBY1 141202Z 10002KT 16/15 A2992 RMK A01 T01630154  RH  094%=      5-min Rain = 0
KBY1 141203Z 10002KT 16/15 A2992 RMK A01 T01640153  RH  093%=      5-min Rain = 0
KBY1 141204Z 12003KT 16/15 A2992 RMK A01 T01640153  RH  093%=      5-min Rain = 0
KBY1 141205Z 11002KT 16/15 A2992 RMK A01 T01640153  RH  093%=      5-min Rain = 0
KBY1 141206Z 10002KT 16/15 A2992 RMK A01 T01640152  RH  093%=      5-min Rain = 0
KBY1 141207Z 10003KT 16/15 A2992 RMK A01 T01640152  RH  092%=      5-min Rain = 0
KBY1 141208Z 10003KT 16/15 A2992 RMK A01 T01640152  RH  093%=      5-min Rain = 0
KBY1 141209Z 09003KT 16/15 A2992 RMK A01 T01630153  RH  093%=      5-min Rain = 0
KBY1 141210Z 07002KT 16/15 A2992 RMK A01 T01630154  RH  094%=      5-min Rain = 0
KBY1 141211Z 05003KT 16/15 A2992 RMK A01 T01630154  RH  094%=      5-min Rain = 0
KBY1 141212Z 05003KT 16/15 A2992 RMK A01 T01630154  RH  094%=      5-min Rain = 0
KBY1 141213Z 05003KT 16/15 A2992 RMK A01 T01630154  RH  095%=      5-min Rain = 0
KBY1 141214Z 05002KT 16/16 A2992 RMK A01 T01630155  RH  095%=      5-min Rain = 0
KBY1 141215Z 06002KT 16/16 A2992 RMK A01 T01640155  RH  094%=      5-min Rain = 0
KBY1 141216Z 08002KT 17/16 A2992 RMK A01 T01650156  RH  094%=      5-min Rain = 0
KBY1 141217Z 10002KT 17/16 A2992 RMK A01 T01660156  RH  094%=      5-min Rain = 0
KBY1 141218Z 12002KT 17/16 A2992 RMK A01 T01660156  RH  094%=      5-min Rain = 0
KBY1 141219Z 14003KT 17/16 A2992 RMK A01 T01670155  RH  093%=      5-min Rain = 0
KBY1 141220Z 15003KT 17/16 A2992 RMK A01 T01670155  RH  093%=      5-min Rain = 0
KBY1 141221Z 16003KT 17/16 A2992 RMK A01 T01670155  RH  093%=      5-min Rain = 0
KBY1 141222Z 16003KT 17/16 A2992 RMK A01 T01680156  RH  093%=      5-min Rain = 0
KBY1 141223Z 17004KT 17/16 A2992 RMK A01 T01680156  RH  093%=      5-min Rain = 0
KBY1 141224Z 16004KT 17/16 A2992 RMK A01 T01690156  RH  092%=      5-min Rain = 0
KBY1 141225Z 16003KT 17/16 A2992 RMK A01 T01690156  RH  092%=      5-min Rain = 0
KBY1 141226Z 15003KT 17/16 A2992 RMK A01 T01700156  RH  091%=      5-min Rain = 0
KBY1 141227Z 14003KT 17/16 A2992 RMK A01 T01710157  RH  091%=      5-min Rain = 0
KBY1 141228Z 13002KT 17/16 A2992 RMK A01 T01720157  RH  091%=      5-min Rain = 0
KBY1 141229Z 11001KT 17/16 A2992 RMK A01 T01720157  RH  091%=      5-min Rain = 0
KBY1 141230Z 10001KT 17/16 A2992 RMK A01 T01720158  RH  091%=      5-min Rain = 0
KBY1 141231Z 04001KT 17/16 A2992 RMK A01 T01720159  RH  092%=      5-min Rain = 0
KBY1 141232Z 03001KT 17/16 A2992 RMK A01 T01720159  RH  092%=      5-min Rain = 0
KBY1 141233Z 01001KT 17/16 A2992 RMK A01 T01720159  RH  092%=      5-min Rain = 0
KBY1 141234Z 00002KT 17/16 A2992 RMK A01 T01720158  RH  092%=      5-min Rain = 0
KBY1 141235Z 01003KT 17/16 A2992 RMK A01 T01720159  RH  092%=      5-min Rain = 0
KBY1 141236Z 01002KT 17/16 A2992 RMK A01 T01720159  RH  092%=      5-min Rain = 0
KBY1 141237Z 01003KT 17/16 A2992 RMK A01 T01730159  RH  091%=      5-min Rain = 0
KBY1 141238Z 01003KT 17/16 A2992 RMK A01 T01740160  RH  091%=      5-min Rain = 0
KBY1 141239Z 01004KT 18/16 A2992 RMK A01 T01750159  RH  090%=      5-min Rain = 0
KBY1 141240Z 02004KT 18/16 A2992 RMK A01 T01760158  RH  089%=      5-min Rain = 0
KBY1 141241Z 04005KT 18/16 A2992 RMK A01 T01780159  RH  089%=      5-min Rain = 0
KBY1 141242Z 05004KT 18/16 A2992 RMK A01 T01790160  RH  089%=      5-min Rain = 0
KBY1 141243Z 09004KT 18/16 A2992 RMK A01 T01800160  RH  088%=      5-min Rain = 0
KBY1 141244Z 10004KT 18/16 A2992 RMK A01 T01800157  RH  086%=      5-min Rain = 0
KBY1 141245Z 09002KT 18/16 A2992 RMK A01 T01810156  RH  086%=      5-min Rain = 0
KBY1 141246Z 13002KT 18/16 A2991 RMK A01 T01810158  RH  086%=      5-min Rain = 0
KBY1 141247Z 13003KT 18/16 A2991 RMK A01 T01820159  RH  087%=      5-min Rain = 0
KBY1 141248Z 12003KT 18/16 A2991 RMK A01 T01820160  RH  087%=      5-min Rain = 0
KBY1 141249Z 12002KT 18/16 A2991 RMK A01 T01810159  RH  087%=      5-min Rain = 0
KBY1 141250Z 12002KT 18/16 A2991 RMK A01 T01810161  RH  088%=      5-min Rain = 0
KBY1 141251Z 14003KT 18/16 A2991 RMK A01 T01810161  RH  088%=      5-min Rain = 0
KBY1 141252Z 13003KT 18/16 A2991 RMK A01 T01810160  RH  087%=      5-min Rain = 0
KBY1 141253Z 12003KT 18/16 A2991 RMK A01 T01800160  RH  088%=      5-min Rain = 0
KBY1 141254Z 13003KT 18/16 A2991 RMK A01 T01800162  RH  089%=      5-min Rain = 0
KBY1 141255Z 15002KT 18/16 A2991 RMK A01 T01800162  RH  089%=      5-min Rain = 0
KBY1 141256Z 15002KT 18/16 A2991 RMK A01 T01800164  RH  090%=      5-min Rain = 0
KBY1 141257Z 15003KT 18/16 A2991 RMK A01 T01800164  RH  090%=      5-min Rain = 0
KBY1 141258Z 15004KT 18/16 A2991 RMK A01 T01800164  RH  090%=      5-min Rain = 0
KBY1 141259Z 15004KT 18/16 A2991 RMK A01 T01800164  RH  090%=      5-min Rain = 0
KBY1 141300Z 16004KT 18/16 A2991 RMK A01 T01800164  RH  090%=      5-min Rain = 0
KBY1 141301Z 16003KT 18/17 A2991 RMK A01 T01800165  RH  091%=      5-min Rain = 0
KBY1 141302Z 16003KT 18/16 A2991 RMK A01 T01810164  RH  090%=      5-min Rain = 0
KBY1 141303Z 16002KT 18/16 A299 RMK A01 T01810163  RH  090%=      5-min Rain = 0
KBY1 141304Z 16002KT 18/16 A299 RMK A01 T01800162  RH  089%=      5-min Rain = 0
KBY1 141305Z 16002KT 18/16 A299 RMK A01 T01810163  RH  089%=      5-min Rain = 0
KBY1 141306Z 15001KT 18/17 A2991 RMK A01 T01820165  RH  090%=      5-min Rain = 0
KBY1 141307Z 16001KT 18/17 A2991 RMK A01 T01830165  RH  089%=      5-min Rain = 0
KBY1 141308Z 17001KT 18/17 A2991 RMK A01 T01840167  RH  090%=      5-min Rain = 0
KBY1 141309Z 15002KT 19/17 A2991 RMK A01 T01850167  RH  089%=      5-min Rain = 0
KBY1 141310Z 15002KT 19/17 A299 RMK A01 T01860166  RH  088%=      5-min Rain = 0
KBY1 141311Z 15002KT 19/17 A299 RMK A01 T01870168  RH  088%=      5-min Rain = 0
KBY1 141312Z 15002KT 19/17 A299 RMK A01 T01880169  RH  088%=      5-min Rain = 0
KBY1 141313Z 16001KT 19/17 A299 RMK A01 T01890167  RH  087%=      5-min Rain = 0
KBY1 141314Z 16003KT 19/17 A299 RMK A01 T01900167  RH  087%=      5-min Rain = 0
KBY1 141315Z 17003KT 19/17 A299 RMK A01 T01900169  RH  087%=      5-min Rain = 0
KBY1 141316Z 16002KT 19/17 A299 RMK A01 T01910171  RH  088%=      5-min Rain = 0
KBY1 141317Z 17003KT 19/17 A299 RMK A01 T01920171  RH  088%=      5-min Rain = 0
KBY1 141318Z 15002KT 19/17 A299 RMK A01 T01930173  RH  088%=      5-min Rain = 0
KBY1 141319Z 17002KT 19/18 A299 RMK A01 T01940176  RH  089%=      5-min Rain = 0
KBY1 141320Z 18003KT 20/17 A299 RMK A01 T01950173  RH  087%=      5-min Rain = 0
KBY1 141321Z 20003KT 20/17 A299 RMK A01 T01960172  RH  086%=      5-min Rain = 0
KBY1 141322Z 16002KT 20/17 A299 RMK A01 T01970173  RH  086%=      5-min Rain = 0
KBY1 141323Z 16001KT 20/18 A299 RMK A01 T01980175  RH  086%=      5-min Rain = 0
KBY1 141324Z 15002KT 20/17 A299 RMK A01 T01980171  RH  084%=      5-min Rain = 0
KBY1 141325Z 18001KT 20/17 A299 RMK A01 T02000173  RH  084%=      5-min Rain = 0
KBY1 141326Z 19002KT 20/17 A299 RMK A01 T02010174  RH  084%=      5-min Rain = 0
KBY1 141327Z 18003KT 20/17 A299 RMK A01 T02010173  RH  084%=      5-min Rain = 0
KBY1 141328Z 20003KT 20/17 A299 RMK A01 T02020172  RH  083%=      5-min Rain = 0
KBY1 141329Z 20003KT 20/18 A299 RMK A01 T02020175  RH  084%=      5-min Rain = 0
KBY1 141330Z 20003KT 20/17 A299 RMK A01 T02020173  RH  083%=      5-min Rain = 0
KBY1 141331Z 20002KT 20/18 A299 RMK A01 T02030178  RH  085%=      5-min Rain = 0
KBY1 141332Z 19002KT 20/18 A299 RMK A01 T02030175  RH  083%=      5-min Rain = 0
KBY1 141333Z 18002KT 20/17 A2989 RMK A01 T02040173  RH  082%=      5-min Rain = 0
KBY1 141334Z 20002KT 21/18 A2989 RMK A01 T02050175  RH  083%=      5-min Rain = 0
KBY1 141335Z 19002KT 21/18 A2989 RMK A01 T02060175  RH  082%=      5-min Rain = 0
KBY1 141336Z 17002KT 21/17 A2989 RMK A01 T02070173  RH  081%=      5-min Rain = 0
KBY1 141337Z 16001KT 21/17 A2989 RMK A01 T02070172  RH  080%=      5-min Rain = 0
KBY1 141338Z 21001KT 21/18 A2989 RMK A01 T02090176  RH  082%=      5-min Rain = 0
KBY1 141339Z 20001KT 21/18 A2989 RMK A01 T02090176  RH  081%=      5-min Rain = 0
KBY1 141340Z 20001KT 21/18 A2989 RMK A01 T02100176  RH  081%=      5-min Rain = 0
KBY1 141341Z 18003KT 21/18 A2989 RMK A01 T02110175  RH  080%=      5-min Rain = 0
KBY1 141342Z 22003KT 21/17 A2989 RMK A01 T02120174  RH  079%=      5-min Rain = 0
KBY1 141343Z 21005KT 21/18 A2989 RMK A01 T02130176  RH  079%=      5-min Rain = 0
KBY1 141344Z 21009KT 21/17 A2989 RMK A01 T02140169  RH  076%=      5-min Rain = 0
KBY1 141345Z 21010KT 22/17 A2989 RMK A01 T02150168  RH  075%=      5-min Rain = 0
KBY1 141346Z 21010KT 22/17 A2989 RMK A01 T02150170  RH  075%=      5-min Rain = 0
KBY1 141347Z 20008KT 22/17 A2989 RMK A01 T02150171  RH  076%=      5-min Rain = 0
KBY1 141348Z 22010KT 22/17 A2989 RMK A01 T02150170  RH  075%=      5-min Rain = 0
KBY1 141349Z 20009KT 22/17 A2989 RMK A01 T02150172  RH  076%=      5-min Rain = 0
KBY1 141350Z 21009KT 22/17 A2989 RMK A01 T02150172  RH  076%=      5-min Rain = 0
KBY1 141351Z 21010KT 22/17 A2989 RMK A01 T02150172  RH  076%=      5-min Rain = 0
KBY1 141352Z 22011KT 22/17 A2989 RMK A01 T02160171  RH  075%=      5-min Rain = 0
KBY1 141353Z 21008KT 22/17 A2989 RMK A01 T02160170  RH  075%=      5-min Rain = 0
KBY1 141354Z 21009KT 22/17 A2988 RMK A01 T02170173  RH  076%=      5-min Rain = 0
KBY1 141355Z 21013KT 22/17 A2988 RMK A01 T02180170  RH  074%=      5-min Rain = 0
KBY1 141356Z 20012KT 22/17 A2988 RMK A01 T02180171  RH  074%=      5-min Rain = 0
KBY1 141357Z 21010KT 22/17 A2988 RMK A01 T02190172  RH  074%=      5-min Rain = 0
KBY1 141358Z 21012KT 22/17 A2988 RMK A01 T02190170  RH  073%=      5-min Rain = 0
KBY1 141359Z 20009KT 22/17 A2988 RMK A01 T02200171  RH  074%=      5-min Rain = 0
KBY1 141400Z 21010KT 22/17 A2988 RMK A01 T02210172  RH  074%=      5-min Rain = 0
KBY1 141401Z 22009KT 22/17 A2988 RMK A01 T02210174  RH  075%=      5-min Rain = 0
KBY1 141402Z 21010KT 22/17 A2988 RMK A01 T02220173  RH  074%=      5-min Rain = 0
KBY1 141403Z 21010G16KT 22/17 A2988 RMK A01 T02220170  RH  072%=      5-min Rain = 0
KBY1 141404Z 21013KT 22/17 A2988 RMK A01 T02230170  RH  072%=      5-min Rain = 0
KBY1 141405Z 20013KT 22/17 A2987 RMK A01 T02230168  RH  071%=      5-min Rain = 0
KBY1 141406Z 20014KT 22/17 A2988 RMK A01 T02230169  RH  071%=      5-min Rain = 0
KBY1 141407Z 20013KT 22/17 A2988 RMK A01 T02230169  RH  071%=      5-min Rain = 0
KBY1 141408Z 21010KT 22/17 A2988 RMK A01 T02240171  RH  072%=      5-min Rain = 0
KBY1 141409Z 21012KT 22/17 A2987 RMK A01 T02240170  RH  071%=      5-min Rain = 0
KBY1 141410Z 21012KT 23/17 A2988 RMK A01 T02250170  RH  071%=      5-min Rain = 0
KBY1 141411Z 21014KT 23/17 A2987 RMK A01 T02260169  RH  070%=      5-min Rain = 0
KBY1 141412Z 22012KT 23/17 A2987 RMK A01 T02270168  RH  069%=      5-min Rain = 0
KBY1 141413Z 21012KT 23/17 A2987 RMK A01 T02280171  RH  070%=      5-min Rain = 0
KBY1 141414Z 21011KT 23/17 A2987 RMK A01 T02290170  RH  069%=      5-min Rain = 0
KBY1 141415Z 22015KT 23/17 A2987 RMK A01 T02290169  RH  069%=      5-min Rain = 0
KBY1 141416Z 21013KT 23/17 A2988 RMK A01 T02290168  RH  068%=      5-min Rain = 0
KBY1 141417Z 22011KT 23/17 A2988 RMK A01 T02290171  RH  070%=      5-min Rain = 0
KBY1 141418Z 21012KT 23/17 A2987 RMK A01 T02290170  RH  069%=      5-min Rain = 0
KBY1 141419Z 22010KT 23/17 A2988 RMK A01 T02290169  RH  069%=      5-min Rain = 0
KBY1 141420Z 22009KT 23/17 A2988 RMK A01 T02300174  RH  071%=      5-min Rain = 0
KBY1 141421Z 22008KT 23/17 A2988 RMK A01 T02300173  RH  070%=      5-min Rain = 0
KBY1 141422Z 22010KT 23/17 A2987 RMK A01 T02310172  RH  069%=      5-min Rain = 0
KBY1 141423Z 22010KT 23/17 A2987 RMK A01 T02310171  RH  069%=      5-min Rain = 0
KBY1 141424Z 21012KT 23/17 A2987 RMK A01 T02320170  RH  068%=      5-min Rain = 0
KBY1 141425Z 22012KT 23/17 A2987 RMK A01 T02330169  RH  068%=      5-min Rain = 0
KBY1 141426Z 22013KT 23/17 A2987 RMK A01 T02330168  RH  067%=      5-min Rain = 0
KBY1 141427Z 22011KT 23/17 A2987 RMK A01 T02330166  RH  066%=      5-min Rain = 0
KBY1 141428Z 22011KT 23/17 A2987 RMK A01 T02330168  RH  067%=      5-min Rain = 0
KBY1 141429Z 22010KT 23/17 A2988 RMK A01 T02330168  RH  067%=      5-min Rain = 0
KBY1 141430Z 22009KT 23/17 A2988 RMK A01 T02340169  RH  067%=      5-min Rain = 0
KBY1 141431Z 21011KT 23/17 A2988 RMK A01 T02340168  RH  067%=      5-min Rain = 0
KBY1 141432Z 22011KT 23/17 A2988 RMK A01 T02340167  RH  066%=      5-min Rain = 0
KBY1 141433Z 22011KT 23/17 A2988 RMK A01 T02340165  RH  065%=      5-min Rain = 0
KBY1 141434Z 22008KT 23/17 A2988 RMK A01 T02340168  RH  066%=      5-min Rain = 0
KBY1 141435Z 23011KT 24/17 A2988 RMK A01 T02350165  RH  065%=      5-min Rain = 0
KBY1 141436Z 21010KT 24/17 A2988 RMK A01 T02360169  RH  066%=      5-min Rain = 0
KBY1 141437Z 22010KT 24/17 A2988 RMK A01 T02370166  RH  064%=      5-min Rain = 0
KBY1 141438Z 22010KT 24/17 A2988 RMK A01 T02370168  RH  065%=      5-min Rain = 0
KBY1 141439Z 23011KT 24/17 A2988 RMK A01 T02370169  RH  066%=      5-min Rain = 0
KBY1 141440Z 22011KT 24/17 A2988 RMK A01 T02370166  RH  064%=      5-min Rain = 0
KBY1 141441Z 22011KT 24/17 A2988 RMK A01 T02380167  RH  064%=      5-min Rain = 0
KBY1 141442Z 22010KT 24/17 A2988 RMK A01 T02380166  RH  064%=      5-min Rain = 0
KBY1 141443Z 22011KT 24/17 A2988 RMK A01 T02370168  RH  065%=      5-min Rain = 0
KBY1 141444Z 22012G18KT 24/17 A2988 RMK A01 T02370166  RH  065%=      5-min Rain = 0
KBY1 141445Z 22011KT 24/16 A2988 RMK A01 T02370163  RH  063%=      5-min Rain = 0
KBY1 141446Z 22012KT 24/17 A2988 RMK A01 T02380166  RH  064%=      5-min Rain = 0
KBY1 141447Z 23008G15KT 24/17 A2988 RMK A01 T02380168  RH  065%=      5-min Rain = 0
KBY1 141448Z 22011KT 24/17 A2988 RMK A01 T02400167  RH  064%=      5-min Rain = 0
KBY1 141449Z 22010KT 24/17 A2988 RMK A01 T02420168  RH  064%=      5-min Rain = 0
KBY1 141450Z 22011KT 24/17 A2988 RMK A01 T02430169  RH  064%=      5-min Rain = 0
KBY1 141451Z 22012KT 24/17 A2988 RMK A01 T02440167  RH  062%=      5-min Rain = 0
KBY1 141452Z 22012KT 24/17 A2988 RMK A01 T02440167  RH  062%=      5-min Rain = 0
KBY1 141453Z 22011KT 25/17 A2988 RMK A01 T02450169  RH  063%=      5-min Rain = 0
KBY1 141454Z 23009KT 25/17 A2988 RMK A01 T02460174  RH  064%=      5-min Rain = 0
KBY1 141455Z 22010KT 25/17 A2988 RMK A01 T02470171  RH  063%=      5-min Rain = 0
KBY1 141456Z 22010KT 25/17 A2988 RMK A01 T02480166  RH  060%=      5-min Rain = 0
KBY1 141457Z 24007KT 25/17 A2988 RMK A01 T02480173  RH  063%=      5-min Rain = 0
KBY1 141458Z 24007KT 25/17 A2988 RMK A01 T02500174  RH  063%=      5-min Rain = 0
KBY1 141459Z 23008KT 25/17 A2988 RMK A01 T02510173  RH  062%=      5-min Rain = 0
KBY1 141500Z 24009KT 25/17 A2988 RMK A01 T02520170  RH  060%=      5-min Rain = 0
KBY1 141501Z 23012KT 25/17 A2988 RMK A01 T02530167  RH  059%=      5-min Rain = 0
KBY1 141502Z 23011KT 25/17 A2988 RMK A01 T02530166  RH  058%=      5-min Rain = 0
KBY1 141503Z 23012KT 25/16 A2988 RMK A01 T02530164  RH  058%=      5-min Rain = 0
KBY1 141504Z 23010KT 25/17 A2988 RMK A01 T02530166  RH  058%=      5-min Rain = 0
KBY1 141505Z 23010KT 25/16 A2988 RMK A01 T02530164  RH  058%=      5-min Rain = 0
KBY1 141506Z 24010KT 25/17 A2988 RMK A01 T02530166  RH  058%=      5-min Rain = 0
KBY1 141507Z 24010KT 25/17 A2988 RMK A01 T02540165  RH  058%=      5-min Rain = 0
KBY1 141508Z 23009KT 26/17 A2988 RMK A01 T02550167  RH  058%=      5-min Rain = 0
KBY1 141509Z 24008KT 26/17 A2988 RMK A01 T02560166  RH  058%=      5-min Rain = 0
KBY1 141510Z 24009KT 26/16 A2988 RMK A01 T02570164  RH  056%=      5-min Rain = 0
KBY1 141511Z 23012KT 26/16 A2987 RMK A01 T02580161  RH  055%=      5-min Rain = 0
KBY1 141512Z 24012KT 26/16 A2987 RMK A01 T02580158  RH  054%=      5-min Rain = 0
KBY1 141513Z 23011KT 26/15 A2987 RMK A01 T02580153  RH  052%=      5-min Rain = 0
KBY1 141514Z 23012KT 26/16 A2987 RMK A01 T02580156  RH  053%=      5-min Rain = 0
KBY1 141515Z 23009KT 26/16 A2988 RMK A01 T02580158  RH  054%=      5-min Rain = 0
KBY1 141516Z 24008KT 26/17 A2987 RMK A01 T02580167  RH  057%=      5-min Rain = 0
KBY1 141517Z 25008KT 26/17 A2987 RMK A01 T02600165  RH  056%=      5-min Rain = 0
KBY1 141518Z 24010G15KT 26/16 A2987 RMK A01 T02610159  RH  053%=      5-min Rain = 0
KBY1 141519Z 24011KT 26/16 A2987 RMK A01 T02610157  RH  053%=      5-min Rain = 0
KBY1 141520Z 25011KT 26/15 A2987 RMK A01 T02610153  RH  051%=      5-min Rain = 0
KBY1 141521Z 25009KT 26/16 A2987 RMK A01 T02610155  RH  052%=      5-min Rain = 0
KBY1 141522Z 23011KT 26/16 A2987 RMK A01 T02620157  RH  053%=      5-min Rain = 0
KBY1 141523Z 23011KT 26/15 A2987 RMK A01 T02630151  RH  050%=      5-min Rain = 0
KBY1 141524Z 23010KT 26/15 A2987 RMK A01 T02620153  RH  051%=      5-min Rain = 0
KBY1 141525Z 24007KT 26/16 A2987 RMK A01 T02610158  RH  053%=      5-min Rain = 0
KBY1 141526Z 24009KT 26/16 A2987 RMK A01 T02620157  RH  052%=      5-min Rain = 0
KBY1 141527Z 24011KT 26/15 A2987 RMK A01 T02640154  RH  051%=      5-min Rain = 0
KBY1 141528Z 24009G14KT 26/16 A2987 RMK A01 T02640157  RH  052%=      5-min Rain = 0
KBY1 141529Z 25012KT 27/15 A2987 RMK A01 T02650151  RH  049%=      5-min Rain = 0
KBY1 141530Z 23011KT 27/16 A2987 RMK A01 T02660156  RH  051%=      5-min Rain = 0
KBY1 141531Z 24011G17KT 27/15 A2987 RMK A01 T02650151  RH  049%=      5-min Rain = 0
KBY1 141532Z 25011KT 27/15 A2987 RMK A01 T02650150  RH  049%=      5-min Rain = 0
KBY1 141533Z 24012KT 27/15 A2987 RMK A01 T02660149  RH  049%=      5-min Rain = 0
KBY1 141534Z 25011KT 27/15 A2987 RMK A01 T02650150  RH  049%=      5-min Rain = 0
KBY1 141535Z 25011KT 27/15 A2987 RMK A01 T02650149  RH  049%=      5-min Rain = 0
KBY1 141536Z 25011KT 27/15 A2987 RMK A01 T02660147  RH  048%=      5-min Rain = 0
KBY1 141537Z 24009KT 27/15 A2987 RMK A01 T02670148  RH  048%=      5-min Rain = 0
KBY1 141538Z 25011KT 27/15 A2987 RMK A01 T02670150  RH  049%=      5-min Rain = 0
KBY1 141539Z 26010KT 27/15 A2987 RMK A01 T02680151  RH  048%=      5-min Rain = 0
KBY1 141540Z 26011KT 27/15 A2987 RMK A01 T02690152  RH  049%=      5-min Rain = 0
KBY1 141541Z 25011KT 27/15 A2987 RMK A01 T02700150  RH  048%=      5-min Rain = 0
KBY1 141542Z 24012KT 27/15 A2987 RMK A01 T02700145  RH  046%=      5-min Rain = 0
KBY1 141543Z 24012KT 27/15 A2987 RMK A01 T02700148  RH  047%=      5-min Rain = 0
KBY1 141544Z 25010KT 27/15 A2987 RMK A01 T02690150  RH  048%=      5-min Rain = 0
KBY1 141545Z 26011KT 27/15 A2987 RMK A01 T02700151  RH  048%=      5-min Rain = 0
KBY1 141546Z 24010KT 27/15 A2987 RMK A01 T02710148  RH  047%=      5-min Rain = 0
KBY1 141547Z 25010KT 27/15 A2987 RMK A01 T02710153  RH  049%=      5-min Rain = 0
KBY1 141548Z 26012G17KT 27/15 A2987 RMK A01 T02720147  RH  046%=      5-min Rain = 0
KBY1 141549Z 26007KT 27/15 A2987 RMK A01 T02720152  RH  048%=      5-min Rain = 0
KBY1 141550Z 25009KT 27/15 A2987 RMK A01 T02730153  RH  048%=      5-min Rain = 0
KBY1 141551Z 25010KT 27/15 A2987 RMK A01 T02740147  RH  046%=      5-min Rain = 0
KBY1 141552Z 25009KT 27/15 A2987 RMK A01 T02740149  RH  046%=      5-min Rain = 0
KBY1 141553Z 25009KT 27/15 A2987 RMK A01 T02730154  RH  048%=      5-min Rain = 0
KBY1 141554Z 24011KT 27/14 A2987 RMK A01 T02740144  RH  045%=      5-min Rain = 0
KBY1 141555Z 25011KT 27/15 A2987 RMK A01 T02740148  RH  046%=      5-min Rain = 0
KBY1 141556Z 26014G19KT 28/14 A2987 RMK A01 T02750136  RH  042%=      5-min Rain = 0
KBY1 141557Z 27014KT 28/13 A2987 RMK A01 T02760132  RH  041%=      5-min Rain = 0
KBY1 141558Z 27014KT 28/13 A2987 RMK A01 T02760131  RH  041%=      5-min Rain = 0
KBY1 141559Z 26012KT 28/14 A2987 RMK A01 T02760135  RH  042%=      5-min Rain = 0
KBY1 141600Z 26014KT 28/13 A2987 RMK A01 T02760132  RH  041%=      5-min Rain = 0
KBY1 141601Z 27013KT 28/14 A2987 RMK A01 T02760137  RH  042%=      5-min Rain = 0
KBY1 141602Z 27013KT 28/13 A2987 RMK A01 T02770134  RH  041%=      5-min Rain = 0
KBY1 141603Z 27014KT 28/13 A2987 RMK A01 T02770132  RH  041%=      5-min Rain = 0
KBY1 141604Z 27013KT 28/13 A2987 RMK A01 T02770131  RH  041%=      5-min Rain = 0
KBY1 141605Z 26015KT 28/13 A2987 RMK A01 T02770133  RH  041%=      5-min Rain = 0
KBY1 141606Z 26012KT 28/13 A2987 RMK A01 T02770132  RH  041%=      5-min Rain = 0
KBY1 141607Z 27012KT 28/13 A2987 RMK A01 T02770132  RH  041%=      5-min Rain = 0
KBY1 141608Z 27012KT 28/13 A2987 RMK A01 T02770132  RH  041%=      5-min Rain = 0
KBY1 141609Z 27011G16KT 28/14 A2986 RMK A01 T02770135  RH  042%=      5-min Rain = 0
KBY1 141610Z 26010KT 28/14 A2986 RMK A01 T02770137  RH  042%=      5-min Rain = 0
KBY1 141611Z 27011KT 28/14 A2986 RMK A01 T02770140  RH  043%=      5-min Rain = 0
KBY1 141612Z 27014KT 28/14 A2986 RMK A01 T02770136  RH  042%=      5-min Rain = 0
KBY1 141613Z 27009KT 28/14 A2986 RMK A01 T02770141  RH  043%=      5-min Rain = 0
KBY1 141614Z 26010KT 28/14 A2986 RMK A01 T02790141  RH  043%=      5-min Rain = 0
KBY1 141615Z 26010KT 28/14 A2986 RMK A01 T02790141  RH  043%=      5-min Rain = 0
KBY1 141616Z 27011KT 28/14 A2986 RMK A01 T02790141  RH  043%=      5-min Rain = 0
KBY1 141617Z 27009KT 28/14 A2986 RMK A01 T02790143  RH  043%=      5-min Rain = 0
KBY1 141618Z 27011KT 28/14 A2986 RMK A01 T02790137  RH  042%=      5-min Rain = 0
KBY1 141619Z 27011KT 28/14 A2986 RMK A01 T02790144  RH  043%=      5-min Rain = 0
KBY1 141620Z 27012KT 28/14 A2986 RMK A01 T02790140  RH  042%=      5-min Rain = 0
KBY1 141621Z 27012KT 28/14 A2986 RMK A01 T02780136  RH  042%=      5-min Rain = 0
KBY1 141622Z 25011KT 28/14 A2986 RMK A01 T02780140  RH  043%=      5-min Rain = 0
KBY1 141623Z 27008KT 28/14 A2986 RMK A01 T02770144  RH  044%=      5-min Rain = 0
KBY1 141624Z 26011KT 28/14 A2986 RMK A01 T02780144  RH  044%=      5-min Rain = 0
KBY1 141625Z 27008KT 28/14 A2986 RMK A01 T02780144  RH  044%=      5-min Rain = 0
KBY1 141626Z 27008KT 28/15 A2986 RMK A01 T02790145  RH  044%=      5-min Rain = 0
KBY1 141627Z 27010KT 28/14 A2986 RMK A01 T02800142  RH  043%=      5-min Rain = 0
KBY1 141628Z 27012KT 28/14 A2986 RMK A01 T02790138  RH  042%=      5-min Rain = 0
KBY1 141629Z 27011KT 28/14 A2986 RMK A01 T02790141  RH  043%=      5-min Rain = 0
KBY1 141630Z 26008KT 28/14 A2986 RMK A01 T02780142  RH  043%=      5-min Rain = 0
KBY1 141631Z 26008KT 28/15 A2986 RMK A01 T02780150  RH  046%=      5-min Rain = 0
KBY1 141632Z 27007KT 28/14 A2986 RMK A01 T02780144  RH  044%=      5-min Rain = 0
KBY1 141633Z 28007KT 28/15 A2986 RMK A01 T02770145  RH  044%=      5-min Rain = 0
KBY1 141634Z 28007KT 28/15 A2986 RMK A01 T02760147  RH  045%=      5-min Rain = 0
KBY1 141635Z 28006KT 28/15 A2986 RMK A01 T02750146  RH  045%=      5-min Rain = 0
KBY1 141636Z 29009KT 27/14 A2986 RMK A01 T02740144  RH  045%=      5-min Rain = 0
KBY1 141637Z 29007KT 27/14 A2986 RMK A01 T02730143  RH  045%=      5-min Rain = 0
KBY1 141638Z 28008KT 27/14 A2986 RMK A01 T02720140  RH  044%=      5-min Rain = 0
KBY1 141639Z 29007KT 27/14 A2986 RMK A01 T02720141  RH  045%=      5-min Rain = 0
KBY1 141640Z 29008KT 27/14 A2986 RMK A01 T02710143  RH  046%=      5-min Rain = 0
KBY1 141641Z 29010KT 27/14 A2986 RMK A01 T02700142  RH  045%=      5-min Rain = 0
KBY1 141642Z 29007KT 27/15 A2986 RMK A01 T02700145  RH  046%=      5-min Rain = 0
KBY1 141643Z 29007KT 27/15 A2986 RMK A01 T02690146  RH  047%=      5-min Rain = 0
KBY1 141644Z 28006KT 27/15 A2986 RMK A01 T02690146  RH  047%=      5-min Rain = 0
KBY1 141645Z 28007KT 27/15 A2986 RMK A01 T02690147  RH  047%=      5-min Rain = 0
KBY1 141646Z 26007KT 27/15 A2986 RMK A01 T02690149  RH  048%=      5-min Rain = 0
KBY1 141647Z 27005KT 27/15 A2986 RMK A01 T02690150  RH  048%=      5-min Rain = 0
KBY1 141648Z 29004KT 27/16 A2986 RMK A01 T02690155  RH  050%=      5-min Rain = 0
KBY1 141649Z 29007KT 27/15 A2986 RMK A01 T02690150  RH  048%=      5-min Rain = 0
KBY1 141650Z 27009KT 27/15 A2986 RMK A01 T02690147  RH  047%=      5-min Rain = 0
KBY1 141651Z 28006KT 27/15 A2986 RMK A01 T02680150  RH  048%=      5-min Rain = 0
KBY1 141652Z 28005KT 27/15 A2986 RMK A01 T02680152  RH  049%=      5-min Rain = 0
KBY1 141653Z 29007KT 27/15 A2986 RMK A01 T02680149  RH  048%=      5-min Rain = 0
KBY1 141654Z 28006KT 27/15 A2986 RMK A01 T02680152  RH  049%=      5-min Rain = 0
KBY1 141655Z 27006KT 27/15 A2986 RMK A01 T02680152  RH  049%=      5-min Rain = 0
KBY1 141656Z 28006KT 27/16 A2986 RMK A01 T02680157  RH  050%=      5-min Rain = 0
KBY1 141657Z 29006KT 27/15 A2986 RMK A01 T02680150  RH  049%=      5-min Rain = 0
KBY1 141658Z 28006KT 27/15 A2986 RMK A01 T02680147  RH  048%=      5-min Rain = 0
KBY1 141659Z 29007KT 27/15 A2986 RMK A01 T02680148  RH  048%=      5-min Rain = 0
KBY1 141700Z 28005KT 27/15 A2986 RMK A01 T02670151  RH  049%=      5-min Rain = 0
KBY1 141701Z 28007KT 27/15 A2986 RMK A01 T02670146  RH  047%=      5-min Rain = 0
KBY1 141702Z 28006KT 27/14 A2986 RMK A01 T02670143  RH  047%=      5-min Rain = 0
KBY1 141703Z 27005KT 27/15 A2986 RMK A01 T02660146  RH  047%=      5-min Rain = 0
KBY1 141704Z 29007KT 27/15 A2986 RMK A01 T02660148  RH  048%=      5-min Rain = 0
KBY1 141705Z 29006KT 27/15 A2986 RMK A01 T02660146  RH  048%=      5-min Rain = 0
KBY1 141706Z 29007KT 27/14 A2986 RMK A01 T02660143  RH  047%=      5-min Rain = 0
KBY1 141707Z 27005KT 27/14 A2986 RMK A01 T02660143  RH  047%=      5-min Rain = 0
KBY1 141708Z 29005KT 27/15 A2986 RMK A01 T02660152  RH  049%=      5-min Rain = 0
KBY1 141709Z 27004KT 27/15 A2986 RMK A01 T02660146  RH  048%=      5-min Rain = 0
KBY1 141710Z 28006KT 27/15 A2985 RMK A01 T02660149  RH  049%=      5-min Rain = 0
KBY1 141711Z 28005KT 27/15 A2986 RMK A01 T02660149  RH  049%=      5-min Rain = 0
KBY1 141712Z 29004KT 27/15 A2986 RMK A01 T02660153  RH  050%=      5-min Rain = 0
KBY1 141713Z 27005KT 27/15 A2985 RMK A01 T02660150  RH  049%=      5-min Rain = 0
KBY1 141714Z 28005KT 27/15 A2985 RMK A01 T02660148  RH  048%=      5-min Rain = 0
KBY1 141715Z 28005KT 27/15 A2985 RMK A01 T02660146  RH  048%=      5-min Rain = 0
KBY1 141716Z 26005KT 27/15 A2985 RMK A01 T02670147  RH  048%=      5-min Rain = 0
KBY1 141717Z 27006KT 27/15 A2985 RMK A01 T02670148  RH  048%=      5-min Rain = 0
KBY1 141718Z 26006KT 27/15 A2985 RMK A01 T02670147  RH  048%=      5-min Rain = 0
KBY1 141719Z 27005KT 27/15 A2985 RMK A01 T02670145  RH  047%=      5-min Rain = 0
KBY1 141720Z 29005KT 27/15 A2985 RMK A01 T02680152  RH  049%=      5-min Rain = 0
KBY1 141721Z 28004KT 27/15 A2985 RMK A01 T02690151  RH  048%=      5-min Rain = 0
KBY1 141722Z 28005KT 27/15 A2985 RMK A01 T02700149  RH  047%=      5-min Rain = 0
KBY1 141723Z 28005KT 27/15 A2985 RMK A01 T02700152  RH  048%=      5-min Rain = 0
KBY1 141724Z 28005KT 27/15 A2985 RMK A01 T02710154  RH  049%=      5-min Rain = 0
KBY1 141725Z 28005KT 27/15 A2985 RMK A01 T02720150  RH  047%=      5-min Rain = 0
KBY1 141726Z 28005KT 27/15 A2985 RMK A01 T02720147  RH  046%=      5-min Rain = 0
KBY1 141727Z 29006KT 27/15 A2985 RMK A01 T02720149  RH  047%=      5-min Rain = 0
KBY1 141728Z 29007KT 27/14 A2985 RMK A01 T02720141  RH  045%=      5-min Rain = 0
KBY1 141729Z 29005KT 27/15 A2985 RMK A01 T02720145  RH  046%=      5-min Rain = 0
KBY1 141730Z 29007KT 27/15 A2985 RMK A01 T02720145  RH  046%=      5-min Rain = 0
KBY1 141731Z 29008KT 27/14 A2985 RMK A01 T02720141  RH  045%=      5-min Rain = 0
KBY1 141732Z 27006KT 27/15 A2985 RMK A01 T02710145  RH  046%=      5-min Rain = 0
KBY1 141733Z 27006KT 27/15 A2985 RMK A01 T02710151  RH  048%=      5-min Rain = 0
KBY1 141734Z 28004KT 27/15 A2985 RMK A01 T02710152  RH  048%=      5-min Rain = 0
KBY1 141735Z 27004KT 27/16 A2985 RMK A01 T02720156  RH  049%=      5-min Rain = 0
KBY1 141736Z 26006KT 27/15 A2985 RMK A01 T02740152  RH  047%=      5-min Rain = 0
KBY1 141737Z 29005KT 27/15 A2985 RMK A01 T02740152  RH  047%=      5-min Rain = 0
KBY1 141738Z 27005KT 27/16 A2985 RMK A01 T02740156  RH  048%=      5-min Rain = 0
KBY1 141739Z 26006KT 28/16 A2985 RMK A01 T02750156  RH  048%=      5-min Rain = 0
KBY1 141740Z 26006KT 28/15 A2984 RMK A01 T02750151  RH  047%=      5-min Rain = 0
KBY1 141741Z 28004KT 28/16 A2984 RMK A01 T02750162  RH  050%=      5-min Rain = 0
KBY1 141742Z 26006KT 28/16 A2984 RMK A01 T02760159  RH  049%=      5-min Rain = 0
KBY1 141743Z 26007KT 28/15 A2984 RMK A01 T02760153  RH  047%=      5-min Rain = 0
KBY1 141744Z 26005KT 28/15 A2984 RMK A01 T02760153  RH  047%=      5-min Rain = 0
KBY1 141745Z 27004KT 28/15 A2984 RMK A01 T02750151  RH  047%=      5-min Rain = 0
KBY1 141746Z 28003KT 28/16 A2984 RMK A01 T02750160  RH  049%=      5-min Rain = 0
KBY1 141747Z 26005KT 28/16 A2984 RMK A01 T02750155  RH  048%=      5-min Rain = 0
KBY1 141748Z 27005KT 28/15 A2984 RMK A01 T02750152  RH  047%=      5-min Rain = 0
KBY1 141749Z 26004KT 28/15 A2984 RMK A01 T02750154  RH  048%=      5-min Rain = 0
KBY1 141750Z 26004KT 28/16 A2984 RMK A01 T02760164  RH  050%=      5-min Rain = 0
KBY1 141751Z 26005KT 28/16 A2984 RMK A01 T02780158  RH  048%=      5-min Rain = 0
KBY1 141752Z 26005KT 28/16 A2984 RMK A01 T02800159  RH  048%=      5-min Rain = 0
KBY1 141753Z 26005KT 28/16 A2984 RMK A01 T02810157  RH  047%=      5-min Rain = 0
KBY1 141754Z 25006KT 28/16 A2984 RMK A01 T02830160  RH  047%=      5-min Rain = 0
KBY1 141755Z 26005KT 28/16 A2984 RMK A01 T02840157  RH  046%=      5-min Rain = 0
KBY1 141756Z 25007KT 28/16 A2984 RMK A01 T02840155  RH  045%=      5-min Rain = 0
KBY1 141757Z 24005KT 28/16 A2984 RMK A01 T02830155  RH  046%=      5-min Rain = 0
KBY1 141758Z 26006KT 28/16 A2984 RMK A01 T02830159  RH  047%=      5-min Rain = 0
KBY1 141759Z 27004KT 28/16 A2984 RMK A01 T02840158  RH  046%=      5-min Rain = 0
KBY1 141800Z 26005KT 28/16 A2984 RMK A01 T02840161  RH  047%=      5-min Rain = 0
KBY1 141801Z 26006KT 29/15 A2984 RMK A01 T02850153  RH  045%=      5-min Rain = 0
KBY1 141802Z 26005KT 29/15 A2984 RMK A01 T02850153  RH  045%=      5-min Rain = 0
KBY1 141803Z 28004KT 29/16 A2984 RMK A01 T02850158  RH  046%=      5-min Rain = 0
KBY1 141804Z 26005KT 28/17 A2984 RMK A01 T02840166  RH  049%=      5-min Rain = 0
KBY1 141805Z 27006KT 29/16 A2984 RMK A01 T02850159  RH  046%=      5-min Rain = 0
KBY1 141806Z 27007KT 29/15 A2984 RMK A01 T02850153  RH  045%=      5-min Rain = 0
KBY1 141807Z 27006KT 28/16 A2984 RMK A01 T02840158  RH  046%=      5-min Rain = 0
KBY1 141808Z 27006KT 28/16 A2984 RMK A01 T02840157  RH  046%=      5-min Rain = 0
KBY1 141809Z 26007KT 28/15 A2984 RMK A01 T02830154  RH  045%=      5-min Rain = 0
KBY1 141810Z 26005KT 28/16 A2984 RMK A01 T02830157  RH  046%=      5-min Rain = 0
KBY1 141811Z 26006KT 28/16 A2984 RMK A01 T02830163  RH  048%=      5-min Rain = 0
KBY1 141812Z 26006KT 28/16 A2984 RMK A01 T02840157  RH  046%=      5-min Rain = 0
KBY1 141813Z 26007KT 29/15 A2984 RMK A01 T02850151  RH  044%=      5-min Rain = 0
KBY1 141814Z 26007KT 29/16 A2984 RMK A01 T02860155  RH  045%=      5-min Rain = 0
KBY1 141815Z 26007KT 29/14 A2984 RMK A01 T02870144  RH  041%=      5-min Rain = 0
KBY1 141816Z 26007KT 29/15 A2984 RMK A01 T02870146  RH  042%=      5-min Rain = 0
KBY1 141817Z 24007KT 29/15 A2984 RMK A01 T02870150  RH  043%=      5-min Rain = 0
KBY1 141818Z 24007KT 29/15 A2984 RMK A01 T02870151  RH  044%=      5-min Rain = 0
KBY1 141819Z 26006KT 29/15 A2984 RMK A01 T02860152  RH  044%=      5-min Rain = 0
KBY1 141820Z 25009KT 29/14 A2984 RMK A01 T02850142  RH  042%=      5-min Rain = 0
KBY1 141821Z 25007KT 29/15 A2984 RMK A01 T02850148  RH  043%=      5-min Rain = 0
KBY1 141822Z 25006KT 29/15 A2984 RMK A01 T02850153  RH  045%=      5-min Rain = 0
KBY1 141823Z 25005KT 29/16 A2984 RMK A01 T02850160  RH  047%=      5-min Rain = 0
KBY1 141824Z 26005KT 29/15 A2983 RMK A01 T02860150  RH  044%=      5-min Rain = 0
KBY1 141825Z 26006KT 29/15 A2983 RMK A01 T02880147  RH  042%=      5-min Rain = 0
KBY1 141826Z 27008KT 29/15 A2983 RMK A01 T02890151  RH  043%=      5-min Rain = 0
KBY1 141827Z 27007KT 29/14 A2983 RMK A01 T02920141  RH  040%=      5-min Rain = 0
KBY1 141828Z 26008KT 29/15 A2983 RMK A01 T02940150  RH  041%=      5-min Rain = 0
KBY1 141829Z 24007KT 30/15 A2983 RMK A01 T02960147  RH  040%=      5-min Rain = 0
KBY1 141830Z 24006KT 30/15 A2983 RMK A01 T02970147  RH  040%=      5-min Rain = 0
KBY1 141831Z 24006KT 30/15 A2983 RMK A01 T02980149  RH  041%=      5-min Rain = 0
KBY1 141832Z 25007KT 30/15 A2983 RMK A01 T02990152  RH  041%=      5-min Rain = 0
KBY1 141833Z 26006KT 30/14 A2983 RMK A01 T03000142  RH  038%=      5-min Rain = 0
KBY1 141834Z 26007KT 30/15 A2983 RMK A01 T03000145  RH  039%=      5-min Rain = 0
KBY1 141835Z 27006KT 30/15 A2983 RMK A01 T03000145  RH  039%=      5-min Rain = 0
KBY1 141836Z 26007G12KT 30/15 A2983 RMK A01 T03010146  RH  039%=      5-min Rain = 0
KBY1 141837Z 27007KT 30/14 A2983 RMK A01 T03020141  RH  037%=      5-min Rain = 0
KBY1 141838Z 26006KT 30/15 A2983 RMK A01 T03040147  RH  039%=      5-min Rain = 0
KBY1 141839Z 26008KT 31/14 A2983 RMK A01 T03050142  RH  037%=      5-min Rain = 0
KBY1 141840Z 27009KT 31/14 A2983 RMK A01 T03050136  RH  036%=      5-min Rain = 0
KBY1 141841Z 27010KT 31/13 A2983 RMK A01 T03050134  RH  035%=      5-min Rain = 0
KBY1 141842Z 26008KT 31/14 A2983 RMK A01 T03050139  RH  036%=      5-min Rain = 0
KBY1 141843Z 26009KT 31/14 A2983 RMK A01 T03060139  RH  036%=      5-min Rain = 0
KBY1 141844Z 24009KT 31/14 A2983 RMK A01 T03060139  RH  036%=      5-min Rain = 0
KBY1 141845Z 25008KT 31/15 A2983 RMK A01 T03070147  RH  038%=      5-min Rain = 0
KBY1 141846Z 26009KT 31/14 A2983 RMK A01 T03080142  RH  037%=      5-min Rain = 0
KBY1 141847Z 25007KT 31/14 A2983 RMK A01 T03080136  RH  035%=      5-min Rain = 0
KBY1 141848Z 25008KT 31/14 A2983 RMK A01 T03080143  RH  037%=      5-min Rain = 0
KBY1 141849Z 25007KT 31/14 A2982 RMK A01 T03080138  RH  035%=      5-min Rain = 0
KBY1 141850Z 26006KT 31/13 A2982 RMK A01 T03070134  RH  035%=      5-min Rain = 0
KBY1 141851Z 26007KT 31/13 A2982 RMK A01 T03070134  RH  035%=      5-min Rain = 0
KBY1 141852Z 26005KT 31/13 A2982 RMK A01 T03070134  RH  035%=      5-min Rain = 0
KBY1 141853Z 27006KT 31/14 A2982 RMK A01 T03070135  RH  035%=      5-min Rain = 0
KBY1 141854Z 25005KT 31/14 A2982 RMK A01 T03080138  RH  036%=      5-min Rain = 0
KBY1 141855Z 26006KT 31/13 A2982 RMK A01 T03080134  RH  034%=      5-min Rain = 0
KBY1 141856Z 25005KT 31/13 A2982 RMK A01 T03090132  RH  034%=      5-min Rain = 0
KBY1 141857Z 25005KT 31/13 A2982 RMK A01 T03100134  RH  034%=      5-min Rain = 0
KBY1 141858Z 24005KT 31/14 A2982 RMK A01 T03110139  RH  035%=      5-min Rain = 0
KBY1 141859Z 25005KT 31/14 A2982 RMK A01 T03120140  RH  035%=      5-min Rain = 0
KBY1 141900Z 26005KT 31/15 A2982 RMK A01 T03130146  RH  036%=      5-min Rain = 0
KBY1 141901Z 26009KT 31/13 A2982 RMK A01 T03130127  RH  032%=      5-min Rain = 0
KBY1 141902Z 26008KT 31/13 A2981 RMK A01 T03140133  RH  033%=      5-min Rain = 0
KBY1 141903Z 27005KT 31/14 A2981 RMK A01 T03140140  RH  035%=      5-min Rain = 0
KBY1 141904Z 27006KT 31/14 A2981 RMK A01 T03140141  RH  035%=      5-min Rain = 0
KBY1 141905Z 28007KT 31/13 A2981 RMK A01 T03140128  RH  032%=      5-min Rain = 0
KBY1 141906Z 27007KT 31/14 A2981 RMK A01 T03140135  RH  033%=      5-min Rain = 0
KBY1 141907Z 28006KT 32/14 A2981 RMK A01 T03150141  RH  035%=      5-min Rain = 0
KBY1 141908Z 29007KT 32/13 A2981 RMK A01 T03150130  RH  032%=      5-min Rain = 0
KBY1 141909Z 28005KT 32/14 A2981 RMK A01 T03150137  RH  034%=      5-min Rain = 0
KBY1 141910Z 26007KT 32/13 A2981 RMK A01 T03150129  RH  032%=      5-min Rain = 0
KBY1 141911Z 27005KT 32/13 A2981 RMK A01 T03150131  RH  032%=      5-min Rain = 0
KBY1 141912Z 29005KT 32/14 A2981 RMK A01 T03160140  RH  035%=      5-min Rain = 0
KBY1 141913Z 28004KT 32/14 A2981 RMK A01 T03160140  RH  034%=      5-min Rain = 0
KBY1 141914Z 27004KT 32/15 A2981 RMK A01 T03160148  RH  036%=      5-min Rain = 0
KBY1 141915Z 29005KT 32/15 A2981 RMK A01 T03170147  RH  036%=      5-min Rain = 0
KBY1 141916Z 27004KT 32/15 A2981 RMK A01 T03170145  RH  035%=      5-min Rain = 0
KBY1 141917Z 28005KT 32/14 A2981 RMK A01 T03180138  RH  033%=      5-min Rain = 0
KBY1 141918Z 29007KT 32/13 A2981 RMK A01 T03190132  RH  032%=      5-min Rain = 0
KBY1 141919Z 27007KT 32/12 A2981 RMK A01 T03200121  RH  030%=      5-min Rain = 0
KBY1 141920Z 27007KT 32/13 A2981 RMK A01 T03190134  RH  032%=      5-min Rain = 0
KBY1 141921Z 25005KT 32/14 A298 RMK A01 T03200137  RH  033%=      5-min Rain = 0
KBY1 141922Z 26005KT 32/14 A298 RMK A01 T03210141  RH  034%=      5-min Rain = 0
KBY1 141923Z 26006KT 32/15 A298 RMK A01 T03210148  RH  035%=      5-min Rain = 0
KBY1 141924Z 27004KT 32/15 A298 RMK A01 T03200151  RH  036%=      5-min Rain = 0
KBY1 141925Z 27003KT 32/15 A298 RMK A01 T03180150  RH  036%=      5-min Rain = 0
KBY1 141926Z 27003KT 32/15 A298 RMK A01 T03180150  RH  036%=      5-min Rain = 0
KBY1 141927Z 26002KT 32/15 A298 RMK A01 T03180147  RH  036%=      5-min Rain = 0
KBY1 141928Z 28002KT 32/16 A298 RMK A01 T03210158  RH  038%=      5-min Rain = 0
KBY1 141929Z 26005KT 32/14 A298 RMK A01 T03230143  RH  034%=      5-min Rain = 0
KBY1 141930Z 27006KT 32/14 A298 RMK A01 T03240137  RH  032%=      5-min Rain = 0
KBY1 141931Z 27004KT 32/14 A298 RMK A01 T03240141  RH  033%=      5-min Rain = 0
KBY1 141932Z 25004KT 32/14 A298 RMK A01 T03240144  RH  034%=      5-min Rain = 0
KBY1 141933Z 28006KT 33/15 A298 RMK A01 T03250150  RH  035%=      5-min Rain = 0
KBY1 141934Z 27007KT 33/13 A298 RMK A01 T03270126  RH  029%=      5-min Rain = 0
KBY1 141935Z 26006KT 33/13 A298 RMK A01 T03260125  RH  029%=      5-min Rain = 0
KBY1 141936Z 26005KT 33/13 A298 RMK A01 T03250126  RH  030%=      5-min Rain = 0
KBY1 141937Z 26006KT 33/14 A298 RMK A01 T03260137  RH  032%=      5-min Rain = 0
KBY1 141938Z 26005KT 33/14 A298 RMK A01 T03260135  RH  031%=      5-min Rain = 0
KBY1 141939Z 27007KT 33/13 A298 RMK A01 T03270131  RH  031%=      5-min Rain = 0
KBY1 141940Z 25006KT 33/13 A298 RMK A01 T03270130  RH  030%=      5-min Rain = 0
KBY1 141941Z 24005KT 33/12 A298 RMK A01 T03270123  RH  029%=      5-min Rain = 0
KBY1 141942Z 26001KT 33/13 A298 RMK A01 T03260126  RH  030%=      5-min Rain = 0
KBY1 141943Z 26002KT 33/15 A298 RMK A01 T03270147  RH  034%=      5-min Rain = 0
KBY1 141944Z 26003KT 33/15 A2979 RMK A01 T03290151  RH  034%=      5-min Rain = 0
KBY1 141945Z 26002KT 33/14 A2979 RMK A01 T03310136  RH  031%=      5-min Rain = 0
KBY1 141946Z 28003KT 33/13 A2979 RMK A01 T03310128  RH  029%=      5-min Rain = 0
KBY1 141947Z 27003KT 33/13 A2979 RMK A01 T03320133  RH  030%=      5-min Rain = 0
KBY1 141948Z 26003KT 33/14 A2979 RMK A01 T03320138  RH  031%=      5-min Rain = 0
KBY1 141949Z 26003KT 33/13 A2979 RMK A01 T03320127  RH  029%=      5-min Rain = 0
KBY1 141950Z 24005KT 33/15 A2979 RMK A01 T03320149  RH  033%=      5-min Rain = 0
KBY1 141951Z 25005KT 33/16 A2979 RMK A01 T03330161  RH  036%=      5-min Rain = 0
KBY1 141952Z 26004KT 33/15 A2979 RMK A01 T03330153  RH  034%=      5-min Rain = 0
KBY1 141953Z 27003KT 33/13 A2979 RMK A01 T03330125  RH  028%=      5-min Rain = 0
KBY1 141954Z 24001KT 33/12 A2979 RMK A01 T03320121  RH  028%=      5-min Rain = 0
KBY1 141955Z 24004KT 33/13 A2979 RMK A01 T03330132  RH  030%=      5-min Rain = 0
KBY1 141956Z 27004KT 33/14 A2979 RMK A01 T03340135  RH  030%=      5-min Rain = 0
KBY1 141957Z 27004KT 33/14 A2979 RMK A01 T03340141  RH  031%=      5-min Rain = 0
KBY1 141958Z 26004KT 33/13 A2979 RMK A01 T03340133  RH  030%=      5-min Rain = 0
KBY1 141959Z 27003KT 33/13 A2979 RMK A01 T03320133  RH  030%=      5-min Rain = 0
KBY1 142000Z 23002KT 33/16 A2979 RMK A01 T03320159  RH  036%=      5-min Rain = 0
KBY1 142001Z 21003KT 33/15 A2979 RMK A01 T03310151  RH  034%=      5-min Rain = 0
KBY1 142002Z 16004KT 33/15 A2979 RMK A01 T03300152  RH  034%=      5-min Rain = 0
KBY1 142003Z 15004KT 33/15 A2979 RMK A01 T03300154  RH  035%=      5-min Rain = 0
KBY1 142004Z 15004KT 33/15 A2979 RMK A01 T03310150  RH  034%=      5-min Rain = 0
KBY1 142005Z 15004KT 33/15 A2979 RMK A01 T03310153  RH  034%=      5-min Rain = 0
KBY1 142006Z 16004KT 33/16 A2979 RMK A01 T03310157  RH  035%=      5-min Rain = 0
KBY1 142007Z 15004KT 33/16 A2979 RMK A01 T03300162  RH  037%=      5-min Rain = 0
KBY1 142008Z 15003KT 33/15 A2979 RMK A01 T03280146  RH  033%=      5-min Rain = 0
KBY1 142009Z 16002KT 33/14 A2979 RMK A01 T03280137  RH  032%=      5-min Rain = 0
KBY1 142010Z 18001KT 33/13 A2979 RMK A01 T03300130  RH  030%=      5-min Rain = 0
KBY1 142011Z 14001KT 33/14 A2979 RMK A01 T03320140  RH  031%=      5-min Rain = 0
KBY1 142012Z 08002KT 33/15 A2979 RMK A01 T03340148  RH  033%=      5-min Rain = 0
KBY1 142013Z 08003KT 34/15 A2979 RMK A01 T03360154  RH  034%=      5-min Rain = 0
KBY1 142014Z 08003KT 34/16 A2979 RMK A01 T03360155  RH  034%=      5-min Rain = 0
KBY1 142015Z 08003KT 34/15 A2979 RMK A01 T03350146  RH  032%=      5-min Rain = 0
KBY1 142016Z 08002KT 34/14 A2979 RMK A01 T03350137  RH  030%=      5-min Rain = 0
KBY1 142017Z 05001KT 34/14 A2979 RMK A01 T03350144  RH  032%=      5-min Rain = 0
KBY1 142018Z 05003KT 34/15 A2978 RMK A01 T03360152  RH  033%=      5-min Rain = 0
KBY1 142019Z 06004KT 34/16 A2978 RMK A01 T03380156  RH  034%=      5-min Rain = 0
KBY1 142020Z 06004KT 34/16 A2978 RMK A01 T03380159  RH  034%=      5-min Rain = 0
KBY1 142021Z 05003KT 34/15 A2978 RMK A01 T03380149  RH  032%=      5-min Rain = 0
KBY1 142022Z 07005KT 34/15 A2978 RMK A01 T03370154  RH  033%=      5-min Rain = 0
KBY1 142023Z 08004KT 34/15 A2978 RMK A01 T03360146  RH  032%=      5-min Rain = 0
KBY1 142024Z 13002KT 34/16 A2978 RMK A01 T03350155  RH  034%=      5-min Rain = 0
KBY1 142025Z 16002KT 34/16 A2978 RMK A01 T03360163  RH  036%=      5-min Rain = 0
KBY1 142026Z 13004KT 34/16 A2978 RMK A01 T03380156  RH  034%=      5-min Rain = 0
KBY1 142027Z 16005KT 34/15 A2978 RMK A01 T03390149  RH  032%=      5-min Rain = 0
KBY1 142028Z 17004KT 34/15 A2978 RMK A01 T03390150  RH  032%=      5-min Rain = 0
KBY1 142029Z 14003KT 34/16 A2978 RMK A01 T03370162  RH  035%=      5-min Rain = 0
KBY1 142030Z 11004KT 34/16 A2978 RMK A01 T03360162  RH  035%=      5-min Rain = 0
KBY1 142031Z 15003KT 33/17 A2978 RMK A01 T03340174  RH  039%=      5-min Rain = 0
KBY1 142032Z 18004KT 33/16 A2978 RMK A01 T03320162  RH  036%=      5-min Rain = 0
KBY1 142033Z 17001KT 33/14 A2978 RMK A01 T03320144  RH  032%=      5-min Rain = 0
KBY1 142034Z 13002KT 33/15 A2978 RMK A01 T03320153  RH  034%=      5-min Rain = 0
KBY1 142035Z 12003KT 33/15 A2978 RMK A01 T03340151  RH  033%=      5-min Rain = 0
KBY1 142036Z 15003KT 34/13 A2978 RMK A01 T03360134  RH  029%=      5-min Rain = 0
KBY1 142037Z 18003KT 34/14 A2978 RMK A01 T03380141  RH  031%=      5-min Rain = 0
KBY1 142038Z 14002KT 34/14 A2977 RMK A01 T03410143  RH  031%=      5-min Rain = 0
KBY1 142039Z 13003KT 34/14 A2977 RMK A01 T03430136  RH  029%=      5-min Rain = 0
KBY1 142040Z 09004KT 34/14 A2977 RMK A01 T03430138  RH  029%=      5-min Rain = 0
KBY1 142041Z 08003KT 34/16 A2977 RMK A01 T03420164  RH  035%=      5-min Rain = 0
KBY1 142042Z 06003KT 34/16 A2977 RMK A01 T03400162  RH  035%=      5-min Rain = 0
KBY1 142043Z 06005KT 34/18 A2977 RMK A01 T03400182  RH  039%=      5-min Rain = 0
KBY1 142044Z 08005KT 34/18 A2977 RMK A01 T03400181  RH  039%=      5-min Rain = 0
KBY1 142045Z 12003KT 34/16 A2977 RMK A01 T03390163  RH  035%=      5-min Rain = 0
KBY1 142046Z 08005KT 34/16 A2977 RMK A01 T03390158  RH  034%=      5-min Rain = 0
KBY1 142047Z 08007KT 34/18 A2977 RMK A01 T03380175  RH  038%=      5-min Rain = 0
KBY1 142048Z 08005KT 34/16 A2977 RMK A01 T03350156  RH  034%=      5-min Rain = 0
KBY1 142049Z 07005KT 33/17 A2977 RMK A01 T03330173  RH  039%=      5-min Rain = 0
KBY1 142050Z 07006KT 33/18 A2977 RMK A01 T03320179  RH  040%=      5-min Rain = 0
KBY1 142051Z 07006KT 33/16 A2977 RMK A01 T03320164  RH  037%=      5-min Rain = 0
KBY1 142052Z 07005KT 33/17 A2977 RMK A01 T03310169  RH  038%=      5-min Rain = 0
KBY1 142053Z 07005KT 33/17 A2977 RMK A01 T03300170  RH  038%=      5-min Rain = 0
KBY1 142054Z 08006KT 33/17 A2977 RMK A01 T03310172  RH  039%=      5-min Rain = 0
KBY1 142055Z 09006KT 33/18 A2977 RMK A01 T03310177  RH  040%=      5-min Rain = 0
KBY1 142056Z 11006KT 33/18 A2977 RMK A01 T03310179  RH  040%=      5-min Rain = 0
KBY1 142057Z 11005KT 33/17 A2977 RMK A01 T03320173  RH  039%=      5-min Rain = 0
KBY1 142058Z 10006KT 33/19 A2977 RMK A01 T03310186  RH  042%=      5-min Rain = 0
KBY1 142059Z 09007KT 33/18 A2977 RMK A01 T03320181  RH  041%=      5-min Rain = 0
KBY1 142100Z 09007KT 33/18 A2977 RMK A01 T03300176  RH  040%=      5-min Rain = 0
KBY1 142101Z 08007KT 33/19 A2977 RMK A01 T03300185  RH  042%=      5-min Rain = 0
KBY1 142102Z 09006KT 33/19 A2977 RMK A01 T03300188  RH  043%=      5-min Rain = 0
KBY1 142103Z 08008KT 33/19 A2977 RMK A01 T03300186  RH  042%=      5-min Rain = 0
KBY1 142104Z 08008KT 33/18 A2977 RMK A01 T03310183  RH  041%=      5-min Rain = 0
KBY1 142105Z 08008KT 33/18 A2977 RMK A01 T03320181  RH  041%=      5-min Rain = 0
KBY1 142106Z 08007KT 33/18 A2977 RMK A01 T03320184  RH  041%=      5-min Rain = 0
KBY1 142107Z 07006KT 33/19 A2977 RMK A01 T03340185  RH  041%=      5-min Rain = 0
KBY1 142108Z 08007KT 33/18 A2977 RMK A01 T03340182  RH  040%=      5-min Rain = 0
KBY1 142109Z 08007KT 34/19 A2977 RMK A01 T03350185  RH  041%=      5-min Rain = 0
KBY1 142110Z 07006KT 33/18 A2977 RMK A01 T03340184  RH  041%=      5-min Rain = 0
KBY1 142111Z 07007KT 33/18 A2977 RMK A01 T03340182  RH  041%=      5-min Rain = 0
KBY1 142112Z 06007KT 33/19 A2976 RMK A01 T03340187  RH  042%=      5-min Rain = 0
KBY1 142113Z 06007KT 33/18 A2976 RMK A01 T03330184  RH  041%=      5-min Rain = 0
KBY1 142114Z 06007KT 33/18 A2976 RMK A01 T03340181  RH  040%=      5-min Rain = 0
KBY1 142115Z 07008KT 33/18 A2976 RMK A01 T03340184  RH  041%=      5-min Rain = 0
KBY1 142116Z 07007KT 34/18 A2976 RMK A01 T03350182  RH  040%=      5-min Rain = 0
KBY1 142117Z 08005KT 34/18 A2976 RMK A01 T03350178  RH  039%=      5-min Rain = 0
KBY1 142118Z 08006KT 34/18 A2976 RMK A01 T03350184  RH  041%=      5-min Rain = 0
KBY1 142119Z 07006KT 34/18 A2976 RMK A01 T03360181  RH  040%=      5-min Rain = 0
KBY1 142120Z 07007KT 34/17 A2976 RMK A01 T03360166  RH  036%=      5-min Rain = 0
KBY1 142121Z 07007KT 34/18 A2976 RMK A01 T03370176  RH  038%=      5-min Rain = 0
KBY1 142122Z 08007KT 34/18 A2976 RMK A01 T03370180  RH  040%=      5-min Rain = 0
KBY1 142123Z 08007KT 34/18 A2976 RMK A01 T03360175  RH  038%=      5-min Rain = 0
KBY1 142124Z 08006KT 34/18 A2976 RMK A01 T03360184  RH  041%=      5-min Rain = 0
KBY1 142125Z 08007KT 34/18 A2976 RMK A01 T03360183  RH  040%=      5-min Rain = 0
KBY1 142126Z 08007KT 34/18 A2976 RMK A01 T03360176  RH  039%=      5-min Rain = 0
KBY1 142127Z 07007KT 34/17 A2976 RMK A01 T03360169  RH  037%=      5-min Rain = 0
KBY1 142128Z 07008KT 34/17 A2975 RMK A01 T03360170  RH  037%=      5-min Rain = 0
KBY1 142129Z 08007KT 34/17 A2975 RMK A01 T03370168  RH  036%=      5-min Rain = 0
KBY1 142130Z 08007KT 34/19 A2975 RMK A01 T03370192  RH  042%=      5-min Rain = 0
KBY1 142131Z 08007KT 34/18 A2975 RMK A01 T03380180  RH  039%=      5-min Rain = 0
KBY1 142132Z 08007KT 34/18 A2975 RMK A01 T03380177  RH  038%=      5-min Rain = 0
KBY1 142133Z 10007KT 34/17 A2975 RMK A01 T03380172  RH  037%=      5-min Rain = 0
KBY1 142134Z 10007KT 34/17 A2975 RMK A01 T03390171  RH  037%=      5-min Rain = 0
KBY1 142135Z 10007KT 34/17 A2975 RMK A01 T03390168  RH  036%=      5-min Rain = 0
KBY1 142136Z 10007KT 34/17 A2975 RMK A01 T03390168  RH  036%=      5-min Rain = 0
KBY1 142137Z 10007KT 34/18 A2975 RMK A01 T03390177  RH  038%=      5-min Rain = 0
KBY1 142138Z 10007KT 34/17 A2975 RMK A01 T03400174  RH  037%=      5-min Rain = 0
KBY1 142139Z 11006KT 34/17 A2975 RMK A01 T03410168  RH  036%=      5-min Rain = 0
KBY1 142140Z 13005KT 34/18 A2975 RMK A01 T03400177  RH  038%=      5-min Rain = 0
KBY1 142141Z 13006KT 34/16 A2975 RMK A01 T03390164  RH  035%=      5-min Rain = 0
KBY1 142142Z 13006KT 34/17 A2975 RMK A01 T03390165  RH  036%=      5-min Rain = 0
KBY1 142143Z 13005KT 34/18 A2975 RMK A01 T03390177  RH  038%=      5-min Rain = 0
KBY1 142144Z 14005KT 34/18 A2975 RMK A01 T03400177  RH  038%=      5-min Rain = 0
KBY1 142145Z 15005KT 34/18 A2975 RMK A01 T03400176  RH  038%=      5-min Rain = 0
KBY1 142146Z 14005KT 34/17 A2975 RMK A01 T03400166  RH  035%=      5-min Rain = 0
KBY1 142147Z 13003KT 34/17 A2975 RMK A01 T03400173  RH  037%=      5-min Rain = 0
KBY1 142148Z 14008KT 34/17 A2975 RMK A01 T03400174  RH  037%=      5-min Rain = 0
KBY1 142149Z 18009G17KT 34/18 A2975 RMK A01 T03400179  RH  039%=      5-min Rain = 0
KBY1 142150Z 24011G16KT 34/17 A2975 RMK A01 T03400166  RH  036%=      5-min Rain = 0
KBY1 142151Z 24007G12KT 34/15 A2975 RMK A01 T03400145  RH  031%=      5-min Rain = 0
KBY1 142152Z 23007KT 34/12 A2975 RMK A01 T03430120  RH  026%=      5-min Rain = 0
KBY1 142153Z 22009KT 35/11 A2975 RMK A01 T03450110  RH  024%=      5-min Rain = 0
KBY1 142154Z 23007KT 35/11 A2975 RMK A01 T03460113  RH  024%=      5-min Rain = 0
KBY1 142155Z 23005KT 35/14 A2975 RMK A01 T03460136  RH  028%=      5-min Rain = 0
KBY1 142156Z 22004KT 35/13 A2975 RMK A01 T03450130  RH  027%=      5-min Rain = 0
KBY1 142157Z 19005KT 35/13 A2974 RMK A01 T03460131  RH  027%=      5-min Rain = 0
KBY1 142158Z 21007KT 35/12 A2974 RMK A01 T03470121  RH  026%=      5-min Rain = 0
KBY1 142159Z 21007KT 35/08 A2974 RMK A01 T03490084  RH  020%=      5-min Rain = 0
KBY1 142200Z 20006KT 35/10 A2974 RMK A01 T03510101  RH  022%=      5-min Rain = 0
KBY1 142201Z 20007KT 35/11 A2974 RMK A01 T03510106  RH  023%=      5-min Rain = 0
KBY1 142202Z 19008KT 35/07 A2974 RMK A01 T03500069  RH  018%=      5-min Rain = 0
KBY1 142203Z 18007KT 35/07 A2974 RMK A01 T03510073  RH  018%=      5-min Rain = 0
KBY1 142204Z 18006KT 35/06 A2974 RMK A01 T03510061  RH  017%=      5-min Rain = 0
KBY1 142205Z 19003KT 35/08 A2974 RMK A01 T03530082  RH  019%=      5-min Rain = 0
KBY1 142206Z 19001KT 35/08 A2974 RMK A01 T03540082  RH  019%=      5-min Rain = 0
KBY1 142207Z 20002KT 36/10 A2974 RMK A01 T03550103  RH  022%=      5-min Rain = 0
KBY1 142208Z 20002KT 36/13 A2974 RMK A01 T03560125  RH  025%=      5-min Rain = 0
KBY1 142209Z 21003KT 36/10 A2974 RMK A01 T03570095  RH  020%=      5-min Rain = 0
KBY1 142210Z 20002KT 36/10 A2974 RMK A01 T03580102  RH  021%=      5-min Rain = 0
KBY1 142211Z 18003KT 36/11 A2974 RMK A01 T03580113  RH  023%=      5-min Rain = 0
KBY1 142212Z 16004KT 36/12 A2974 RMK A01 T03590119  RH  024%=      5-min Rain = 0
KBY1 142213Z 12007KT 36/16 A2974 RMK A01 T03580164  RH  032%=      5-min Rain = 0
KBY1 142214Z 13008KT 35/20 A2974 RMK A01 T03480196  RH  041%=      5-min Rain = 0
KBY1 142215Z 14007KT 34/18 A2974 RMK A01 T03410183  RH  039%=      5-min Rain = 0
KBY1 142216Z 16006KT 34/18 A2973 RMK A01 T03370180  RH  039%=      5-min Rain = 0
KBY1 142217Z 13007KT 34/19 A2973 RMK A01 T03350189  RH  042%=      5-min Rain = 0
KBY1 142218Z 12005KT 33/20 A2973 RMK A01 T03340200  RH  045%=      5-min Rain = 0
KBY1 142219Z 13005KT 33/20 A2973 RMK A01 T03340201  RH  046%=      5-min Rain = 0
KBY1 142220Z 12005KT 33/20 A2973 RMK A01 T03330200  RH  046%=      5-min Rain = 0
KBY1 142221Z 10009KT 33/19 A2973 RMK A01 T03340194  RH  044%=      5-min Rain = 0
KBY1 142222Z 12008G13KT 33/20 A2973 RMK A01 T03340195  RH  044%=      5-min Rain = 0
KBY1 142223Z 10010KT 33/20 A2973 RMK A01 T03320202  RH  047%=      5-min Rain = 0
KBY1 142224Z 09013KT 33/20 A2973 RMK A01 T03310196  RH  045%=      5-min Rain = 0
KBY1 142225Z 10010KT 33/19 A2973 RMK A01 T03290191  RH  044%=      5-min Rain = 0
KBY1 142226Z 11012KT 33/19 A2973 RMK A01 T03280189  RH  044%=      5-min Rain = 0
KBY1 142227Z 11010KT 33/18 A2973 RMK A01 T03280178  RH  041%=      5-min Rain = 0
KBY1 142228Z 12009KT 33/18 A2973 RMK A01 T03280180  RH  041%=      5-min Rain = 0
KBY1 142229Z 13006KT 33/18 A2973 RMK A01 T03280183  RH  042%=      5-min Rain = 0
KBY1 142230Z 12006KT 33/18 A2973 RMK A01 T03290177  RH  041%=      5-min Rain = 0
KBY1 142231Z 12007KT 33/18 A2973 RMK A01 T03300178  RH  040%=      5-min Rain = 0
KBY1 142232Z 11005KT 33/18 A2973 RMK A01 T03300183  RH  042%=      5-min Rain = 0
KBY1 142233Z 12009KT 33/19 A2973 RMK A01 T03300186  RH  042%=      5-min Rain = 0
KBY1 142234Z 11010KT 33/18 A2973 RMK A01 T03300182  RH  041%=      5-min Rain = 0
KBY1 142235Z 11011KT 33/18 A2973 RMK A01 T03300179  RH  041%=      5-min Rain = 0
KBY1 142236Z 12009KT 33/18 A2972 RMK A01 T03280182  RH  042%=      5-min Rain = 0
KBY1 142237Z 12009KT 33/19 A2972 RMK A01 T03280190  RH  044%=      5-min Rain = 0
KBY1 142238Z 12010KT 33/18 A2972 RMK A01 T03280177  RH  041%=      5-min Rain = 0
KBY1 142239Z 12007KT 33/18 A2972 RMK A01 T03280181  RH  042%=      5-min Rain = 0
KBY1 142240Z 11008KT 33/19 A2972 RMK A01 T03280191  RH  045%=      5-min Rain = 0
KBY1 142241Z 11010KT 33/18 A2972 RMK A01 T03290182  RH  042%=      5-min Rain = 0
KBY1 142242Z 10009KT 33/18 A2972 RMK A01 T03300177  RH  040%=      5-min Rain = 0
KBY1 142243Z 10009KT 33/19 A2972 RMK A01 T03300189  RH  043%=      5-min Rain = 0
KBY1 142244Z 09008KT 33/19 A2972 RMK A01 T03300189  RH  043%=      5-min Rain = 0
KBY1 142245Z 10009KT 33/19 A2972 RMK A01 T03290190  RH  044%=      5-min Rain = 0
KBY1 142246Z 11008KT 33/19 A2972 RMK A01 T03290185  RH  043%=      5-min Rain = 0
KBY1 142247Z 11007KT 33/19 A2972 RMK A01 T03300188  RH  043%=      5-min Rain = 0
KBY1 142248Z 10009KT 33/19 A2972 RMK A01 T03300185  RH  042%=      5-min Rain = 0
KBY1 142249Z 11009KT 33/17 A2972 RMK A01 T03310170  RH  038%=      5-min Rain = 0
KBY1 142250Z 10009KT 33/18 A2972 RMK A01 T03320179  RH  040%=      5-min Rain = 0
KBY1 142251Z 11008KT 33/19 A2972 RMK A01 T03320190  RH  043%=      5-min Rain = 0
KBY1 142252Z 10008KT 33/20 A2972 RMK A01 T03320195  RH  045%=      5-min Rain = 0
KBY1 142253Z 10009KT 33/19 A2972 RMK A01 T03310187  RH  042%=      5-min Rain = 0
KBY1 142254Z 10010KT 33/19 A2972 RMK A01 T03310190  RH  044%=      5-min Rain = 0
KBY1 142255Z 10008KT 33/19 A2972 RMK A01 T03290193  RH  045%=      5-min Rain = 0
KBY1 142256Z 10008KT 33/20 A2972 RMK A01 T03280197  RH  046%=      5-min Rain = 0
KBY1 142257Z 10008KT 33/20 A2972 RMK A01 T03270199  RH  047%=      5-min Rain = 0
KBY1 142258Z 10008KT 33/20 A2972 RMK A01 T03270196  RH  046%=      5-min Rain = 0
KBY1 142259Z 11008KT 33/19 A2972 RMK A01 T03280192  RH  045%=      5-min Rain = 0
KBY1 142300Z 11010KT 33/19 A2972 RMK A01 T03270187  RH  044%=      5-min Rain = 0
KBY1 142301Z 10008KT 33/19 A2972 RMK A01 T03260194  RH  046%=      5-min Rain = 0
KBY1 142302Z 11008KT 32/20 A2971 RMK A01 T03240196  RH  047%=      5-min Rain = 0
KBY1 142303Z 10008KT 32/19 A2971 RMK A01 T03230194  RH  047%=      5-min Rain = 0
KBY1 142304Z 11008KT 32/20 A2971 RMK A01 T03210198  RH  048%=      5-min Rain = 0
KBY1 142305Z 11011KT 32/19 A2972 RMK A01 T03200192  RH  047%=      5-min Rain = 0
KBY1 142306Z 11010KT 32/19 A2971 RMK A01 T03210192  RH  047%=      5-min Rain = 0
KBY1 142307Z 11007KT 32/20 A2971 RMK A01 T03220195  RH  047%=      5-min Rain = 0
KBY1 142308Z 13007KT 32/20 A2971 RMK A01 T03220199  RH  048%=      5-min Rain = 0
KBY1 142309Z 12008KT 32/20 A2971 RMK A01 T03210195  RH  047%=      5-min Rain = 0
KBY1 142310Z 11004KT 32/19 A2971 RMK A01 T03200194  RH  047%=      5-min Rain = 0
KBY1 142311Z 11007KT 32/20 A2971 RMK A01 T03190198  RH  049%=      5-min Rain = 0
KBY1 142312Z 14003KT 32/19 A2971 RMK A01 T03170194  RH  048%=      5-min Rain = 0
KBY1 142313Z 14004KT 32/20 A2971 RMK A01 T03160198  RH  050%=      5-min Rain = 0
KBY1 142314Z 16004KT 31/20 A2971 RMK A01 T03140195  RH  049%=      5-min Rain = 0
KBY1 142315Z 18003KT 31/19 A2971 RMK A01 T03120194  RH  049%=      5-min Rain = 0
KBY1 142316Z 19004KT 31/20 A2971 RMK A01 T03110197  RH  051%=      5-min Rain = 0
KBY1 142317Z 22003KT 31/20 A2971 RMK A01 T03110198  RH  051%=      5-min Rain = 0
KBY1 142318Z 23005KT 31/20 A2971 RMK A01 T03100198  RH  051%=      5-min Rain = 0
KBY1 142319Z 22006KT 31/20 A2971 RMK A01 T03100202  RH  053%=      5-min Rain = 0
KBY1 142320Z 23008KT 31/19 A2971 RMK A01 T03090194  RH  051%=      5-min Rain = 0
KBY1 142321Z 23009KT 31/19 A297 RMK A01 T03090192  RH  050%=      5-min Rain = 0
KBY1 142322Z 23010KT 31/19 A297 RMK A01 T03100188  RH  048%=      5-min Rain = 0
KBY1 142323Z 21010KT 31/19 A2971 RMK A01 T03110191  RH  049%=      5-min Rain = 0
KBY1 142324Z 20008G14KT 31/18 A2971 RMK A01 T03120183  RH  046%=      5-min Rain = 0
KBY1 142325Z 14006KT 32/15 A2971 RMK A01 T03170151  RH  037%=      5-min Rain = 0
KBY1 142326Z 11007KT 32/16 A297 RMK A01 T03240164  RH  038%=      5-min Rain = 0
KBY1 142327Z 10008KT 33/15 A297 RMK A01 T03270154  RH  035%=      5-min Rain = 0
KBY1 142328Z 09009KT 33/16 A297 RMK A01 T03280158  RH  036%=      5-min Rain = 0
KBY1 142329Z 09010KT 33/16 A297 RMK A01 T03290160  RH  036%=      5-min Rain = 0
KBY1 142330Z 13010KT 33/17 A297 RMK A01 T03300170  RH  038%=      5-min Rain = 0
KBY1 142331Z 11007KT 33/18 A297 RMK A01 T03280178  RH  041%=      5-min Rain = 0
KBY1 142332Z 11013KT 33/18 A297 RMK A01 T03250183  RH  043%=      5-min Rain = 0
KBY1 142333Z 11016KT 32/17 A297 RMK A01 T03220172  RH  041%=      5-min Rain = 0
KBY1 142334Z 10009KT 32/17 A297 RMK A01 T03220172  RH  041%=      5-min Rain = 0
KBY1 142335Z 11006G11KT 32/17 A297 RMK A01 T03220174  RH  041%=      5-min Rain = 0
KBY1 142336Z 15004KT 32/17 A297 RMK A01 T03220165  RH  039%=      5-min Rain = 0
KBY1 142337Z 11007KT 32/17 A297 RMK A01 T03220166  RH  039%=      5-min Rain = 0
KBY1 142338Z 10006G11KT 32/18 A297 RMK A01 T03200179  RH  043%=      5-min Rain = 0
KBY1 142339Z 17005KT 32/18 A297 RMK A01 T03180181  RH  044%=      5-min Rain = 0
KBY1 142340Z 14004KT 32/18 A297 RMK A01 T03150178  RH  044%=      5-min Rain = 0
KBY1 142341Z 13006KT 31/17 A297 RMK A01 T03140172  RH  043%=      5-min Rain = 0
KBY1 142342Z 12005KT 32/17 A297 RMK A01 T03170174  RH  042%=      5-min Rain = 0
KBY1 142343Z 11005KT 32/17 A297 RMK A01 T03190171  RH  041%=      5-min Rain = 0
KBY1 142344Z 09005KT 32/18 A297 RMK A01 T03210178  RH  043%=      5-min Rain = 0
KBY1 142345Z 08007KT 32/18 A297 RMK A01 T03210183  RH  044%=      5-min Rain = 0
KBY1 142346Z 07005KT 32/18 A297 RMK A01 T03200180  RH  043%=      5-min Rain = 0
KBY1 142347Z 05005KT 32/17 A297 RMK A01 T03180173  RH  042%=      5-min Rain = 0
KBY1 142348Z 04003KT 32/17 A297 RMK A01 T03200174  RH  042%=      5-min Rain = 0
KBY1 142349Z 07003KT 32/18 A297 RMK A01 T03220182  RH  043%=      5-min Rain = 0
KBY1 142350Z 10003KT 32/19 A297 RMK A01 T03230185  RH  044%=      5-min Rain = 0
KBY1 142351Z 13003KT 32/19 A297 RMK A01 T03240191  RH  046%=      5-min Rain = 0
KBY1 142352Z 14004KT 32/19 A297 RMK A01 T03240187  RH  044%=      5-min Rain = 0
KBY1 142353Z 14007KT 32/18 A297 RMK A01 T03240180  RH  042%=      5-min Rain = 0
KBY1 142354Z 12006KT 32/18 A297 RMK A01 T03230184  RH  044%=      5-min Rain = 0
KBY1 142355Z 11006KT 32/18 A297 RMK A01 T03200183  RH  044%=      5-min Rain = 0
KBY1 142356Z 12004KT 32/18 A2969 RMK A01 T03180184  RH  045%=      5-min Rain = 0
KBY1 142357Z 10005KT 32/20 A2969 RMK A01 T03160195  RH  049%=      5-min Rain = 0
KBY1 142358Z 11006KT 31/19 A2969 RMK A01 T03130190  RH  048%=      5-min Rain = 0
KBY1 142359Z 12005KT 31/19 A2969 RMK A01 T03120190  RH  048%=      5-min Rain = 0
KBY1 150000Z 13004KT 31/19 A2969 RMK A01 T03100191  RH  049%=      5-min Rain = 0
KBY1 150001Z 14005KT 31/20 A2969 RMK A01 T03090196  RH  051%=      5-min Rain = 0
KBY1 150002Z 13005KT 31/19 A2969 RMK A01 T03070194  RH  051%=      5-min Rain = 0
KBY1 150003Z 13004KT 31/20 A2969 RMK A01 T03070195  RH  051%=      5-min Rain = 0
KBY1 150004Z 13003KT 31/20 A2969 RMK A01 T03060199  RH  053%=      5-min Rain = 0
KBY1 150005Z 11002KT 31/20 A2969 RMK A01 T03060199  RH  053%=      5-min Rain = 0
KBY1 150006Z 10002KT 31/20 A2969 RMK A01 T03050203  RH  054%=      5-min Rain = 0
KBY1 150007Z 11001KT 31/20 A2969 RMK A01 T03050203  RH  054%=      5-min Rain = 0
KBY1 150008Z 08002KT 31/20 A2969 RMK A01 T03050199  RH  053%=      5-min Rain = 0
KBY1 150009Z 10004KT 31/20 A2968 RMK A01 T03050202  RH  054%=      5-min Rain = 0
KBY1 150010Z 10003KT 31/19 A2968 RMK A01 T03050190  RH  050%=      5-min Rain = 0
KBY1 150011Z 22003KT 31/20 A2968 RMK A01 T03080197  RH  052%=      5-min Rain = 0
KBY1 150012Z 20004KT 31/16 A2968 RMK A01 T03100163  RH  041%=      5-min Rain = 0
KBY1 150013Z 15001KT 32/18 A2968 RMK A01 T03150175  RH  043%=      5-min Rain = 0
KBY1 150014Z 21001KT 32/18 A2968 RMK A01 T03170183  RH  045%=      5-min Rain = 0
KBY1 150015Z 20004KT 32/16 A2968 RMK A01 T03190161  RH  039%=      5-min Rain = 0
KBY1 150016Z 23006G11KT 33/12 A2968 RMK A01 T03250123  RH  029%=      5-min Rain = 0
KBY1 150017Z 24006KT 33/12 A2968 RMK A01 T03310121  RH  028%=      5-min Rain = 0
KBY1 150018Z 23007KT 34/10 A2968 RMK A01 T03360102  RH  024%=      5-min Rain = 0
KBY1 150019Z 23006KT 34/11 A2968 RMK A01 T03370106  RH  024%=      5-min Rain = 0
KBY1 150020Z 24007KT 34/10 A2968 RMK A01 T03380104  RH  024%=      5-min Rain = 0
KBY1 150021Z 24006KT 34/11 A2968 RMK A01 T03380105  RH  024%=      5-min Rain = 0
KBY1 150022Z 24006KT 34/11 A2968 RMK A01 T03370106  RH  024%=      5-min Rain = 0
KBY1 150023Z 23007KT 34/10 A2968 RMK A01 T03370102  RH  024%=      5-min Rain = 0
KBY1 150024Z 23005KT 34/11 A2968 RMK A01 T03370110  RH  025%=      5-min Rain = 0
KBY1 150025Z 23007KT 34/10 A2968 RMK A01 T03360102  RH  024%=      5-min Rain = 0
KBY1 150026Z 23006KT 34/10 A2968 RMK A01 T03360104  RH  024%=      5-min Rain = 0
KBY1 150027Z 23005KT 34/11 A2968 RMK A01 T03370108  RH  025%=      5-min Rain = 0
KBY1 150028Z 23005KT 34/12 A2968 RMK A01 T03370116  RH  026%=      5-min Rain = 0
KBY1 150029Z 22005KT 34/10 A2968 RMK A01 T03360102  RH  024%=      5-min Rain = 0
KBY1 150030Z 23005KT 34/11 A2968 RMK A01 T03350105  RH  024%=      5-min Rain = 0
KBY1 150031Z 23006KT 33/10 A2968 RMK A01 T03340103  RH  024%=      5-min Rain = 0
KBY1 150032Z 24005KT 33/10 A2968 RMK A01 T03340103  RH  024%=      5-min Rain = 0
KBY1 150033Z 23004KT 33/10 A2968 RMK A01 T03330104  RH  025%=      5-min Rain = 0
KBY1 150034Z 24008KT 33/09 A2968 RMK A01 T03330094  RH  023%=      5-min Rain = 0
KBY1 150035Z 23005KT 34/09 A2968 RMK A01 T03360094  RH  023%=      5-min Rain = 0
KBY1 150036Z 24006KT 34/10 A2968 RMK A01 T03370100  RH  023%=      5-min Rain = 0
KBY1 150037Z 23008G13KT 34/10 A2968 RMK A01 T03380095  RH  023%=      5-min Rain = 0
KBY1 150038Z 23009KT 34/08 A2967 RMK A01 T03380084  RH  021%=      5-min Rain = 0
KBY1 150039Z 23008KT 34/08 A2967 RMK A01 T03390080  RH  020%=      5-min Rain = 0
KBY1 150040Z 23009KT 34/08 A2967 RMK A01 T03400079  RH  020%=      5-min Rain = 0
KBY1 150041Z 23008KT 34/09 A2967 RMK A01 T03410088  RH  021%=      5-min Rain = 0
KBY1 150042Z 24007KT 34/09 A2967 RMK A01 T03400087  RH  021%=      5-min Rain = 0
KBY1 150043Z 23006KT 34/10 A2967 RMK A01 T03400095  RH  022%=      5-min Rain = 0
KBY1 150044Z 23007KT 34/10 A2967 RMK A01 T03380095  RH  023%=      5-min Rain = 0
KBY1 150045Z 23006KT 34/10 A2967 RMK A01 T03370097  RH  023%=      5-min Rain = 0
KBY1 150046Z 23006KT 34/11 A2967 RMK A01 T03360105  RH  024%=      5-min Rain = 0
KBY1 150047Z 23005KT 34/11 A2967 RMK A01 T03360107  RH  025%=      5-min Rain = 0
KBY1 150048Z 24006KT 33/10 A2967 RMK A01 T03340102  RH  024%=      5-min Rain = 0
KBY1 150049Z 23005KT 33/10 A2967 RMK A01 T03340104  RH  024%=      5-min Rain = 0
KBY1 150050Z 24005KT 33/11 A2967 RMK A01 T03340111  RH  026%=      5-min Rain = 0
KBY1 150051Z 23005KT 33/11 A2967 RMK A01 T03330113  RH  026%=      5-min Rain = 0
KBY1 150052Z 24006KT 33/10 A2967 RMK A01 T03330104  RH  025%=      5-min Rain = 0
KBY1 150053Z 23005KT 33/11 A2967 RMK A01 T03330106  RH  025%=      5-min Rain = 0
KBY1 150054Z 23004KT 33/12 A2967 RMK A01 T03330117  RH  027%=      5-min Rain = 0
KBY1 150055Z 23005KT 33/12 A2967 RMK A01 T03320117  RH  027%=      5-min Rain = 0
KBY1 150056Z 24006KT 33/11 A2967 RMK A01 T03320113  RH  026%=      5-min Rain = 0
KBY1 150057Z 24006KT 33/10 A2967 RMK A01 T03310103  RH  025%=      5-min Rain = 0
KBY1 150058Z 23007KT 33/10 A2967 RMK A01 T03320101  RH  024%=      5-min Rain = 0
KBY1 150059Z 24005KT 33/11 A2968 RMK A01 T03320111  RH  026%=      5-min Rain = 0
KBY1 150100Z 24006KT 33/11 A2968 RMK A01 T03310105  RH  025%=      5-min Rain = 0
KBY1 150101Z 24006KT 33/11 A2968 RMK A01 T03300108  RH  026%=      5-min Rain = 0
KBY1 150102Z 23007KT 33/10 A2968 RMK A01 T03280103  RH  025%=      5-min Rain = 0
KBY1 150103Z 23005KT 33/11 A2968 RMK A01 T03260108  RH  026%=      5-min Rain = 0
KBY1 150104Z 23005KT 33/11 A2968 RMK A01 T03250111  RH  027%=      5-min Rain = 0
KBY1 150105Z 24005KT 32/11 A2968 RMK A01 T03230111  RH  027%=      5-min Rain = 0
KBY1 150106Z 24005KT 32/11 A2968 RMK A01 T03220109  RH  027%=      5-min Rain = 0
KBY1 150107Z 24005KT 32/11 A2968 RMK A01 T03220106  RH  027%=      5-min Rain = 0
KBY1 150108Z 24005KT 32/11 A2968 RMK A01 T03210105  RH  026%=      5-min Rain = 0
KBY1 150109Z 24005KT 32/11 A2968 RMK A01 T03210107  RH  027%=      5-min Rain = 0
KBY1 150110Z 24004KT 32/11 A2968 RMK A01 T03200111  RH  028%=      5-min Rain = 0
KBY1 150111Z 23005KT 32/11 A2968 RMK A01 T03190108  RH  027%=      5-min Rain = 0
KBY1 150112Z 23005KT 32/11 A2968 RMK A01 T03180108  RH  027%=      5-min Rain = 0
KBY1 150113Z 23004KT 32/11 A2968 RMK A01 T03180110  RH  028%=      5-min Rain = 0
KBY1 150114Z 23003KT 32/11 A2968 RMK A01 T03170111  RH  028%=      5-min Rain = 0
KBY1 150115Z 23004KT 32/11 A2968 RMK A01 T03170109  RH  028%=      5-min Rain = 0
KBY1 150116Z 22003KT 32/12 A2968 RMK A01 T03170117  RH  029%=      5-min Rain = 0
KBY1 150117Z 21003KT 32/12 A2968 RMK A01 T03170119  RH  030%=      5-min Rain = 0
KBY1 150118Z 23004KT 32/12 A2968 RMK A01 T03170116  RH  029%=      5-min Rain = 0
KBY1 150119Z 22004KT 32/12 A2968 RMK A01 T03170115  RH  029%=      5-min Rain = 0
KBY1 150120Z 23005KT 32/12 A2968 RMK A01 T03170119  RH  030%=      5-min Rain = 0
KBY1 150121Z 23005KT 32/12 A2968 RMK A01 T03160121  RH  030%=      5-min Rain = 0
KBY1 150122Z 23005KT 31/11 A2968 RMK A01 T03140110  RH  028%=      5-min Rain = 0
KBY1 150123Z 23005KT 31/11 A2968 RMK A01 T03140107  RH  028%=      5-min Rain = 0
KBY1 150124Z 23005KT 31/11 A2968 RMK A01 T03130106  RH  028%=      5-min Rain = 0
KBY1 150125Z 23005KT 31/10 A2968 RMK A01 T03130102  RH  027%=      5-min Rain = 0
KBY1 150126Z 23005KT 31/10 A2968 RMK A01 T03120103  RH  027%=      5-min Rain = 0
KBY1 150127Z 23004KT 31/10 A2968 RMK A01 T03110099  RH  027%=      5-min Rain = 0
KBY1 150128Z 23004KT 31/10 A2968 RMK A01 T03110097  RH  027%=      5-min Rain = 0
KBY1 150129Z 23004KT 31/10 A2968 RMK A01 T03100095  RH  026%=      5-min Rain = 0
KBY1 150130Z 22004KT 31/10 A2968 RMK A01 T03090096  RH  027%=      5-min Rain = 0
KBY1 150131Z 23004KT 31/10 A2968 RMK A01 T03090096  RH  027%=      5-min Rain = 0
KBY1 150132Z 22004KT 31/10 A2968 RMK A01 T03080101  RH  028%=      5-min Rain = 0
KBY1 150133Z 22006KT 31/10 A2968 RMK A01 T03070096  RH  027%=      5-min Rain = 0
KBY1 150134Z 23005KT 31/10 A2968 RMK A01 T03070101  RH  028%=      5-min Rain = 0
KBY1 150135Z 23003KT 31/10 A2968 RMK A01 T03060099  RH  028%=      5-min Rain = 0
KBY1 150136Z 22004KT 30/10 A2968 RMK A01 T03040097  RH  028%=      5-min Rain = 0
KBY1 150137Z 21004KT 30/10 A2968 RMK A01 T03040098  RH  028%=      5-min Rain = 0
KBY1 150138Z 22004KT 30/10 A2968 RMK A01 T03030096  RH  028%=      5-min Rain = 0
KBY1 150139Z 22005KT 30/09 A2968 RMK A01 T03020094  RH  027%=      5-min Rain = 0
KBY1 150140Z 21005KT 30/10 A2968 RMK A01 T03020096  RH  028%=      5-min Rain = 0
KBY1 150141Z 21004KT 30/10 A2968 RMK A01 T03010104  RH  029%=      5-min Rain = 0
KBY1 150142Z 21004KT 30/10 A2968 RMK A01 T03000102  RH  029%=      5-min Rain = 0
KBY1 150143Z 21004KT 30/10 A2968 RMK A01 T02990098  RH  029%=      5-min Rain = 0
KBY1 150144Z 21004KT 30/10 A2968 RMK A01 T02980098  RH  029%=      5-min Rain = 0
KBY1 150145Z 21003KT 30/10 A2968 RMK A01 T02970096  RH  029%=      5-min Rain = 0
KBY1 150146Z 20004KT 30/09 A2968 RMK A01 T02970094  RH  028%=      5-min Rain = 0
KBY1 150147Z 21003KT 30/10 A2968 RMK A01 T02970097  RH  029%=      5-min Rain = 0
KBY1 150148Z 22003KT 30/09 A2968 RMK A01 T02970094  RH  028%=      5-min Rain = 0
KBY1 150149Z 22002KT 30/09 A2968 RMK A01 T02960094  RH  028%=      5-min Rain = 0
KBY1 150150Z 22002KT 30/10 A2968 RMK A01 T02960096  RH  029%=      5-min Rain = 0
KBY1 150151Z 22002KT 30/09 A2968 RMK A01 T02950092  RH  028%=      5-min Rain = 0
KBY1 150152Z 20003KT 30/10 A2968 RMK A01 T02950098  RH  029%=      5-min Rain = 0
KBY1 150153Z 20004KT 29/10 A2968 RMK A01 T02940098  RH  029%=      5-min Rain = 0
KBY1 150154Z 20004KT 29/11 A2968 RMK A01 T02940107  RH  031%=      5-min Rain = 0
KBY1 150155Z 22006KT 29/11 A2968 RMK A01 T02920106  RH  032%=      5-min Rain = 0
KBY1 150156Z 22005KT 29/10 A2968 RMK A01 T02910104  RH  031%=      5-min Rain = 0
KBY1 150157Z 21005KT 29/11 A2968 RMK A01 T02900105  RH  032%=      5-min Rain = 0
KBY1 150158Z 21006KT 29/11 A2968 RMK A01 T02870106  RH  032%=      5-min Rain = 0
KBY1 150159Z 21007KT 29/10 A2968 RMK A01 T02860102  RH  032%=      5-min Rain = 0
KBY1 150200Z 20008KT 29/10 A2968 RMK A01 T02850103  RH  032%=      5-min Rain = 0
KBY1 150201Z 20007KT 28/11 A2968 RMK A01 T02830107  RH  033%=      5-min Rain = 0
KBY1 150202Z 18006KT 28/11 A2968 RMK A01 T02810109  RH  034%=      5-min Rain = 0
KBY1 150203Z 18005KT 28/11 A2968 RMK A01 T02770110  RH  035%=      5-min Rain = 0
KBY1 150204Z 19006KT 28/11 A2968 RMK A01 T02750109  RH  035%=      5-min Rain = 0
KBY1 150205Z 19007KT 28/11 A2968 RMK A01 T02750109  RH  036%=      5-min Rain = 0
KBY1 150206Z 20008KT 28/11 A2968 RMK A01 T02750106  RH  035%=      5-min Rain = 0
KBY1 150207Z 19009KT 28/10 A2968 RMK A01 T02750104  RH  034%=      5-min Rain = 0
KBY1 150208Z 19009KT 28/10 A2968 RMK A01 T02780099  RH  033%=      5-min Rain = 0
KBY1 150209Z 19009KT 28/10 A2968 RMK A01 T02800101  RH  033%=      5-min Rain = 0
KBY1 150210Z 19010KT 28/10 A2968 RMK A01 T02820099  RH  032%=      5-min Rain = 0
KBY1 150211Z 19011KT 28/10 A2968 RMK A01 T02830099  RH  032%=      5-min Rain = 0
KBY1 150212Z 19010KT 28/10 A2968 RMK A01 T02840100  RH  032%=      5-min Rain = 0
KBY1 150213Z 19011KT 28/10 A2968 RMK A01 T02840101  RH  032%=      5-min Rain = 0
KBY1 150214Z 19010KT 28/10 A2968 RMK A01 T02840098  RH  031%=      5-min Rain = 0
KBY1 150215Z 20012KT 29/10 A2969 RMK A01 T02850096  RH  031%=      5-min Rain = 0
KBY1 150216Z 20010KT 29/09 A2969 RMK A01 T02870094  RH  030%=      5-min Rain = 0
KBY1 150217Z 20009KT 29/10 A2969 RMK A01 T02880096  RH  030%=      5-min Rain = 0
KBY1 150218Z 20010KT 29/10 A2969 RMK A01 T02880097  RH  030%=      5-min Rain = 0
KBY1 150219Z 20009KT 29/10 A2969 RMK A01 T02860099  RH  031%=      5-min Rain = 0
KBY1 150220Z 20009KT 28/10 A2969 RMK A01 T02840100  RH  032%=      5-min Rain = 0
KBY1 150221Z 20009KT 28/10 A2969 RMK A01 T02830098  RH  032%=      5-min Rain = 0
KBY1 150222Z 20008KT 28/10 A2969 RMK A01 T02830097  RH  031%=      5-min Rain = 0
KBY1 150223Z 20009KT 28/10 A2969 RMK A01 T02830097  RH  031%=      5-min Rain = 0
KBY1 150224Z 20009KT 28/10 A2969 RMK A01 T02830098  RH  031%=      5-min Rain = 0
KBY1 150225Z 20009KT 28/10 A2969 RMK A01 T02830099  RH  032%=      5-min Rain = 0
KBY1 150226Z 20009KT 28/10 A2969 RMK A01 T02820097  RH  031%=      5-min Rain = 0
KBY1 150227Z 20010KT 28/10 A2969 RMK A01 T02820098  RH  032%=      5-min Rain = 0
KBY1 150228Z 21009KT 28/10 A2969 RMK A01 T02820099  RH  032%=      5-min Rain = 0
KBY1 150229Z 20009KT 28/10 A2969 RMK A01 T02820097  RH  031%=      5-min Rain = 0
KBY1 150230Z 20010KT 28/10 A2969 RMK A01 T02830100  RH  032%=      5-min Rain = 0
KBY1 150231Z 21010KT 28/10 A2969 RMK A01 T02830100  RH  032%=      5-min Rain = 0
KBY1 150232Z 20010KT 28/10 A2969 RMK A01 T02820102  RH  032%=      5-min Rain = 0
KBY1 150233Z 20009KT 28/10 A2969 RMK A01 T02820102  RH  032%=      5-min Rain = 0
KBY1 150234Z 20010KT 28/10 A2969 RMK A01 T02820102  RH  032%=      5-min Rain = 0
KBY1 150235Z 19012G17KT 28/10 A2969 RMK A01 T02820100  RH  032%=      5-min Rain = 0
KBY1 150236Z 19009KT 28/10 A2969 RMK A01 T02840102  RH  032%=      5-min Rain = 0
KBY1 150237Z 19010KT 28/10 A2969 RMK A01 T02840101  RH  032%=      5-min Rain = 0
KBY1 150238Z 19012KT 29/10 A2969 RMK A01 T02850101  RH  032%=      5-min Rain = 0
KBY1 150239Z 19014KT 29/10 A2969 RMK A01 T02860100  RH  031%=      5-min Rain = 0
KBY1 150240Z 19013KT 29/10 A2969 RMK A01 T02880100  RH  031%=      5-min Rain = 0
KBY1 150241Z 20010KT 29/10 A2969 RMK A01 T02890102  RH  031%=      5-min Rain = 0
KBY1 150242Z 19011G16KT 29/10 A2969 RMK A01 T02880104  RH  032%=      5-min Rain = 0
KBY1 150243Z 20011KT 29/10 A2969 RMK A01 T02860102  RH  032%=      5-min Rain = 0
KBY1 150244Z 20010KT 29/10 A297 RMK A01 T02860103  RH  032%=      5-min Rain = 0
KBY1 150245Z 20011KT 29/11 A297 RMK A01 T02860105  RH  033%=      5-min Rain = 0
KBY1 150246Z 20012KT 28/11 A297 RMK A01 T02840106  RH  033%=      5-min Rain = 0
KBY1 150247Z 20010KT 28/10 A297 RMK A01 T02830104  RH  033%=      5-min Rain = 0
KBY1 150248Z 20011KT 28/11 A297 RMK A01 T02830107  RH  033%=      5-min Rain = 0
KBY1 150249Z 20011KT 28/10 A297 RMK A01 T02810104  RH  033%=      5-min Rain = 0
KBY1 150250Z 20011KT 28/10 A297 RMK A01 T02820103  RH  033%=      5-min Rain = 0
KBY1 150251Z 20012KT 28/10 A297 RMK A01 T02820104  RH  033%=      5-min Rain = 0
KBY1 150252Z 20009KT 28/10 A297 RMK A01 T02830104  RH  033%=      5-min Rain = 0
KBY1 150253Z 20010KT 28/11 A297 RMK A01 T02820106  RH  033%=      5-min Rain = 0
KBY1 150254Z 20011KT 28/11 A297 RMK A01 T02810106  RH  034%=      5-min Rain = 0
KBY1 150255Z 19011G16KT 28/11 A297 RMK A01 T02800107  RH  034%=      5-min Rain = 0
KBY1 150256Z 20012KT 28/11 A297 RMK A01 T02790106  RH  034%=      5-min Rain = 0
KBY1 150257Z 20010KT 28/11 A297 RMK A01 T02790105  RH  034%=      5-min Rain = 0
KBY1 150258Z 20013KT 28/11 A297 RMK A01 T02790106  RH  034%=      5-min Rain = 0
KBY1 150259Z 20013KT 28/11 A297 RMK A01 T02790105  RH  034%=      5-min Rain = 0
KBY1 150300Z 20013KT 28/11 A297 RMK A01 T02790108  RH  034%=      5-min Rain = 0
KBY1 150301Z 20014KT 28/10 A297 RMK A01 T02790104  RH  034%=      5-min Rain = 0
KBY1 150302Z 20011KT 28/11 A297 RMK A01 T02810106  RH  034%=      5-min Rain = 0
KBY1 150303Z 20012KT 28/11 A297 RMK A01 T02810107  RH  034%=      5-min Rain = 0
KBY1 150304Z 20014KT 28/11 A297 RMK A01 T02800106  RH  034%=      5-min Rain = 0
KBY1 150305Z 20013KT 28/11 A297 RMK A01 T02810107  RH  034%=      5-min Rain = 0
KBY1 150306Z 20015KT 28/11 A297 RMK A01 T02810107  RH  034%=      5-min Rain = 0
KBY1 150307Z 19015KT 28/11 A297 RMK A01 T02810106  RH  034%=      5-min Rain = 0
KBY1 150308Z 20015G20KT 28/11 A297 RMK A01 T02830107  RH  033%=      5-min Rain = 0
KBY1 150309Z 19016KT 28/11 A297 RMK A01 T02840105  RH  033%=      5-min Rain = 0
KBY1 150310Z 19013KT 29/11 A297 RMK A01 T02860107  RH  033%=      5-min Rain = 0
KBY1 150311Z 19014G19KT 29/11 A297 RMK A01 T02850109  RH  034%=      5-min Rain = 0
KBY1 150312Z 20015KT 28/11 A297 RMK A01 T02840108  RH  034%=      5-min Rain = 0
KBY1 150313Z 19013KT 28/11 A2971 RMK A01 T02830111  RH  034%=      5-min Rain = 0
KBY1 150314Z 20012G17KT 28/11 A2971 RMK A01 T02810111  RH  035%=      5-min Rain = 0
KBY1 150315Z 19016G21KT 28/11 A297 RMK A01 T02800109  RH  034%=      5-min Rain = 0
KBY1 150316Z 19014KT 28/11 A297 RMK A01 T02800109  RH  034%=      5-min Rain = 0
KBY1 150317Z 19012G19KT 28/11 A2971 RMK A01 T02810110  RH  035%=      5-min Rain = 0
KBY1 150318Z 19014KT 28/11 A2971 RMK A01 T02810110  RH  035%=      5-min Rain = 0
KBY1 150319Z 20012KT 28/11 A2971 RMK A01 T02800111  RH  035%=      5-min Rain = 0
KBY1 150320Z 19015KT 28/11 A2971 RMK A01 T02800109  RH  035%=      5-min Rain = 0
KBY1 150321Z 20013KT 28/11 A2971 RMK A01 T02810110  RH  035%=      5-min Rain = 0
KBY1 150322Z 19014G21KT 28/11 A2971 RMK A01 T02800111  RH  035%=      5-min Rain = 0
KBY1 150323Z 20012KT 28/11 A2971 RMK A01 T02800111  RH  035%=      5-min Rain = 0
KBY1 150324Z 19015G21KT 28/11 A2971 RMK A01 T02790111  RH  035%=      5-min Rain = 0
KBY1 150325Z 20014G19KT 28/11 A2971 RMK A01 T02790111  RH  035%=      5-min Rain = 0
KBY1 150326Z 19014KT 28/11 A2971 RMK A01 T02790111  RH  035%=      5-min Rain = 0
KBY1 150327Z 19016KT 28/11 A2971 RMK A01 T02790111  RH  035%=      5-min Rain = 0
KBY1 150328Z 20017G22KT 28/11 A2971 RMK A01 T02800111  RH  035%=      5-min Rain = 0
KBY1 150329Z 20016G21KT 28/11 A2971 RMK A01 T02810111  RH  035%=      5-min Rain = 0
KBY1 150330Z 20013KT 28/11 A2971 RMK A01 T02810112  RH  035%=      5-min Rain = 0
KBY1 150331Z 19016G22KT 28/11 A2971 RMK A01 T02810113  RH  035%=      5-min Rain = 0
KBY1 150332Z 20015KT 28/11 A2971 RMK A01 T02800112  RH  035%=      5-min Rain = 0
KBY1 150333Z 19015G20KT 28/11 A2971 RMK A01 T02800114  RH  036%=      5-min Rain = 0
KBY1 150334Z 19014KT 28/11 A2971 RMK A01 T02800113  RH  036%=      5-min Rain = 0
KBY1 150335Z 19014KT 28/11 A2971 RMK A01 T02800113  RH  036%=      5-min Rain = 0
KBY1 150336Z 19014KT 28/11 A2971 RMK A01 T02790114  RH  036%=      5-min Rain = 0
KBY1 150337Z 19016KT 28/12 A2971 RMK A01 T02790115  RH  036%=      5-min Rain = 0
KBY1 150338Z 19013KT 28/11 A2971 RMK A01 T02780114  RH  036%=      5-min Rain = 0
KBY1 150339Z 19015G20KT 28/12 A2971 RMK A01 T02780115  RH  036%=      5-min Rain = 0
KBY1 150340Z 19015KT 28/12 A2971 RMK A01 T02780115  RH  036%=      5-min Rain = 0
KBY1 150341Z 20015G20KT 28/12 A2971 RMK A01 T02780115  RH  036%=      5-min Rain = 0
KBY1 150342Z 19015KT 28/12 A2971 RMK A01 T02770115  RH  036%=      5-min Rain = 0
KBY1 150343Z 19014KT 28/12 A2971 RMK A01 T02780115  RH  036%=      5-min Rain = 0
KBY1 150344Z 19016KT 28/12 A2971 RMK A01 T02780115  RH  036%=      5-min Rain = 0
KBY1 150345Z 19017KT 28/12 A2971 RMK A01 T02770115  RH  036%=      5-min Rain = 0
KBY1 150346Z 19016G21KT 28/12 A2971 RMK A01 T02780115  RH  036%=      5-min Rain = 0
KBY1 150347Z 19017KT 28/11 A2971 RMK A01 T02780114  RH  036%=      5-min Rain = 0
KBY1 150348Z 19014KT 28/12 A2971 RMK A01 T02790115  RH  036%=      5-min Rain = 0
KBY1 150349Z 20014G19KT 28/12 A2971 RMK A01 T02780116  RH  037%=      5-min Rain = 0
KBY1 150350Z 19014KT 28/12 A2971 RMK A01 T02770116  RH  037%=      5-min Rain = 0
KBY1 150351Z 19014KT 28/12 A2971 RMK A01 T02760115  RH  037%=      5-min Rain = 0
KBY1 150352Z 19013KT 28/12 A2971 RMK A01 T02760116  RH  037%=      5-min Rain = 0
KBY1 150353Z 19015KT 28/12 A2971 RMK A01 T02750116  RH  037%=      5-min Rain = 0
KBY1 150354Z 19016G21KT 28/12 A2971 RMK A01 T02750115  RH  037%=      5-min Rain = 0
KBY1 150355Z 19016KT 28/11 A2971 RMK A01 T02750114  RH  037%=      5-min Rain = 0
KBY1 150356Z 19014G19KT 28/12 A2971 RMK A01 T02750115  RH  037%=      5-min Rain = 0
KBY1 150357Z 19014G19KT 28/12 A2971 RMK A01 T02750115  RH  037%=      5-min Rain = 0
KBY1 150358Z 19013G20KT 28/12 A2971 RMK A01 T02750116  RH  037%=      5-min Rain = 0
KBY1 150359Z 19015KT 27/12 A2971 RMK A01 T02740115  RH  037%=      5-min Rain = 0
KBY1 150400Z 19017KT 27/11 A2971 RMK A01 T02740114  RH  037%=      5-min Rain = 0
KBY1 150401Z 19017KT 27/11 A2971 RMK A01 T02740113  RH  037%=      5-min Rain = 0
KBY1 150402Z 19015G20KT 27/11 A2971 RMK A01 T02740114  RH  037%=      5-min Rain = 0
KBY1 150403Z 19016G21KT 27/11 A2971 RMK A01 T02740113  RH  037%=      5-min Rain = 0
KBY1 150404Z 19013KT 27/11 A2971 RMK A01 T02740114  RH  037%=      5-min Rain = 0
KBY1 150405Z 19012KT 27/12 A2971 RMK A01 T02730116  RH  038%=      5-min Rain = 0
KBY1 150406Z 20015KT 27/11 A2971 RMK A01 T02710114  RH  038%=      5-min Rain = 0
KBY1 150407Z 19018KT 27/11 A2971 RMK A01 T02710114  RH  037%=      5-min Rain = 0
KBY1 150408Z 19017KT 27/11 A2971 RMK A01 T02720112  RH  037%=      5-min Rain = 0
KBY1 150409Z 19016KT 27/11 A2972 RMK A01 T02720112  RH  037%=      5-min Rain = 0
KBY1 150410Z 19014G19KT 27/11 A2972 RMK A01 T02720112  RH  037%=      5-min Rain = 0
KBY1 150411Z 19013KT 27/11 A2972 RMK A01 T02720114  RH  037%=      5-min Rain = 0
KBY1 150412Z 20013KT 27/11 A2972 RMK A01 T02720114  RH  037%=      5-min Rain = 0
KBY1 150413Z 19014KT 27/11 A2972 RMK A01 T02710114  RH  037%=      5-min Rain = 0
KBY1 150414Z 19013KT 27/11 A2972 RMK A01 T02700113  RH  037%=      5-min Rain = 0
KBY1 150415Z 19015G21KT 27/11 A2972 RMK A01 T02700114  RH  038%=      5-min Rain = 0
KBY1 150416Z 20015KT 27/11 A2971 RMK A01 T02700112  RH  037%=      5-min Rain = 0
KBY1 150417Z 19016G21KT 27/11 A2972 RMK A01 T02700113  RH  038%=      5-min Rain = 0
KBY1 150418Z 19012G18KT 27/11 A2972 RMK A01 T02700113  RH  037%=      5-min Rain = 0
KBY1 150419Z 19014KT 27/11 A2972 RMK A01 T02690114  RH  038%=      5-min Rain = 0
KBY1 150420Z 19013KT 27/11 A2972 RMK A01 T02680113  RH  038%=      5-min Rain = 0
KBY1 150421Z 19014KT 27/11 A2971 RMK A01 T02680113  RH  038%=      5-min Rain = 0
KBY1 150422Z 19016G21KT 27/11 A2972 RMK A01 T02670112  RH  038%=      5-min Rain = 0
KBY1 150423Z 19015KT 27/11 A2971 RMK A01 T02670111  RH  038%=      5-min Rain = 0
KBY1 150424Z 19014G19KT 27/11 A2972 RMK A01 T02670113  RH  038%=      5-min Rain = 0
KBY1 150425Z 19016KT 27/11 A2972 RMK A01 T02670112  RH  038%=      5-min Rain = 0
KBY1 150426Z 20015KT 27/11 A2972 RMK A01 T02670111  RH  038%=      5-min Rain = 0
KBY1 150427Z 20015KT 27/11 A2972 RMK A01 T02670112  RH  038%=      5-min Rain = 0
KBY1 150428Z 20012KT 27/11 A2972 RMK A01 T02660113  RH  038%=      5-min Rain = 0
KBY1 150429Z 19016G22KT 27/11 A2972 RMK A01 T02650112  RH  038%=      5-min Rain = 0
KBY1 150430Z 19016KT 26/11 A2972 RMK A01 T02640111  RH  038%=      5-min Rain = 0
KBY1 150431Z 19016G21KT 27/11 A2972 RMK A01 T02650110  RH  038%=      5-min Rain = 0
KBY1 150432Z 19014G19KT 27/11 A2972 RMK A01 T02650110  RH  038%=      5-min Rain = 0
KBY1 150433Z 19016KT 27/11 A2972 RMK A01 T02650110  RH  038%=      5-min Rain = 0
KBY1 150434Z 19016G21KT 27/11 A2972 RMK A01 T02650110  RH  038%=      5-min Rain = 0
KBY1 150435Z 20017KT 27/11 A2972 RMK A01 T02650109  RH  038%=      5-min Rain = 0
KBY1 150436Z 19015KT 27/11 A2972 RMK A01 T02650109  RH  038%=      5-min Rain = 0
KBY1 150437Z 20016KT 27/11 A2972 RMK A01 T02650109  RH  038%=      5-min Rain = 0
KBY1 150438Z 19016G23KT 26/11 A2972 RMK A01 T02640109  RH  038%=      5-min Rain = 0
KBY1 150439Z 19014G19KT 26/11 A2972 RMK A01 T02640110  RH  038%=      5-min Rain = 0
KBY1 150440Z 19016KT 26/11 A2972 RMK A01 T02630109  RH  038%=      5-min Rain = 0
KBY1 150441Z 19015KT 26/11 A2972 RMK A01 T02630107  RH  037%=      5-min Rain = 0
KBY1 150442Z 20011KT 26/11 A2972 RMK A01 T02630109  RH  038%=      5-min Rain = 0
KBY1 150443Z 19013KT 26/11 A2972 RMK A01 T02610110  RH  039%=      5-min Rain = 0
KBY1 150444Z 20012KT 26/11 A2972 RMK A01 T02610108  RH  038%=      5-min Rain = 0
KBY1 150445Z 20012KT 26/11 A2972 RMK A01 T02600108  RH  038%=      5-min Rain = 0
KBY1 150446Z 20012KT 26/11 A2972 RMK A01 T02600107  RH  038%=      5-min Rain = 0
KBY1 150447Z 20012KT 26/11 A2972 RMK A01 T02600106  RH  038%=      5-min Rain = 0
KBY1 150448Z 20011KT 26/11 A2972 RMK A01 T02590105  RH  038%=      5-min Rain = 0
KBY1 150449Z 20011KT 26/10 A2972 RMK A01 T02590103  RH  037%=      5-min Rain = 0
KBY1 150450Z 20015KT 26/10 A2972 RMK A01 T02590101  RH  037%=      5-min Rain = 0
KBY1 150451Z 20011KT 26/10 A2972 RMK A01 T02610099  RH  036%=      5-min Rain = 0
KBY1 150452Z 20013KT 26/10 A2972 RMK A01 T02610099  RH  036%=      5-min Rain = 0
KBY1 150453Z 20010KT 26/10 A2972 RMK A01 T02610099  RH  036%=      5-min Rain = 0
KBY1 150454Z 20012KT 26/10 A2972 RMK A01 T02600099  RH  036%=      5-min Rain = 0
KBY1 150455Z 21012KT 26/10 A2972 RMK A01 T02600096  RH  036%=      5-min Rain = 0
KBY1 150456Z 20011G16KT 26/10 A2972 RMK A01 T02600096  RH  035%=      5-min Rain = 0
KBY1 150457Z 20013KT 26/10 A2972 RMK A01 T02600095  RH  035%=      5-min Rain = 0
KBY1 150458Z 20010KT 26/09 A2972 RMK A01 T02600094  RH  035%=      5-min Rain = 0
KBY1 150459Z 21009KT 26/10 A2972 RMK A01 T02600096  RH  035%=      5-min Rain = 0

Page generated in 0.1892 seconds.